<?xml version="1.0" encoding="UTF-8" standalone="no" ?>
<gpx xmlns="http://www.topografix.com/GPX/1/1" xmlns:xsi="http://www.w3.org/2001/XMLSchema-instance" xsi:schemaLocation="http://www.topografix.com/GPX/1/1 http://www.topografix.com/GPX/1/1/gpx.xsd" version="1.1" creator="VisuGPX - https://www.visugpx.com">
  <metadata>
    <name>passerelles</name>
    <desc><![CDATA[Les passerelles du Drac ; De Treffort à Meyre Savel avec la Mira.
Jolie balade familiale sans difficulté.  Avec en prime une baignade si le temps s'y prête. 
]]></desc>
  </metadata>
  <wpt lat="44.90706" lon="5.67181">
    <ele>487.3</ele>
    <name><![CDATA[Trefort]]></name>
  </wpt>
  <trk>
    <name><![CDATA[passerelles]]></name>
    <trkseg>
      <trkpt lat="44.88046" lon="5.68905">
        <ele>452.4376221</ele>
        <time>2021-07-05T08:06:53Z</time>
      </trkpt>
      <trkpt lat="44.8805" lon="5.68901">
        <ele>452.9182129</ele>
        <time>2021-07-05T08:07:18Z</time>
      </trkpt>
      <trkpt lat="44.8805" lon="5.689">
        <ele>455.8022461</ele>
        <time>2021-07-05T08:07:40Z</time>
      </trkpt>
      <trkpt lat="44.8805" lon="5.689">
        <ele>459.1668701</ele>
        <time>2021-07-05T08:07:47Z</time>
      </trkpt>
      <trkpt lat="44.8805" lon="5.68901">
        <ele>462.5313721</ele>
        <time>2021-07-05T08:07:55Z</time>
      </trkpt>
      <trkpt lat="44.88052" lon="5.68897">
        <ele>465.8961182</ele>
        <time>2021-07-05T08:08:06Z</time>
      </trkpt>
      <trkpt lat="44.88052" lon="5.68897">
        <ele>468.7800293</ele>
        <time>2021-07-05T08:08:20Z</time>
      </trkpt>
      <trkpt lat="44.88052" lon="5.68897">
        <ele>471.6639404</ele>
        <time>2021-07-05T08:08:46Z</time>
      </trkpt>
      <trkpt lat="44.88052" lon="5.68897">
        <ele>473.5866699</ele>
        <time>2021-07-05T08:09:54Z</time>
      </trkpt>
      <trkpt lat="44.88051" lon="5.68894">
        <ele>473.5866699</ele>
        <time>2021-07-05T08:10:42Z</time>
      </trkpt>
      <trkpt lat="44.88049" lon="5.68889">
        <ele>474.5479736</ele>
        <time>2021-07-05T08:10:56Z</time>
      </trkpt>
      <trkpt lat="44.88049" lon="5.68886">
        <ele>472.1446533</ele>
        <time>2021-07-05T08:11:12Z</time>
      </trkpt>
      <trkpt lat="44.88053" lon="5.68895">
        <ele>471.6639404</ele>
        <time>2021-07-05T08:11:44Z</time>
      </trkpt>
      <trkpt lat="44.88052" lon="5.68895">
        <ele>471.6639404</ele>
        <time>2021-07-05T08:11:45Z</time>
      </trkpt>
      <trkpt lat="44.88052" lon="5.68899">
        <ele>470.7026367</ele>
        <time>2021-07-05T08:11:58Z</time>
      </trkpt>
      <trkpt lat="44.88052" lon="5.68896">
        <ele>471.6639404</ele>
        <time>2021-07-05T08:12:09Z</time>
      </trkpt>
      <trkpt lat="44.88052" lon="5.68896">
        <ele>472.1446533</ele>
        <time>2021-07-05T08:12:30Z</time>
      </trkpt>
      <trkpt lat="44.88053" lon="5.68895">
        <ele>472.1446533</ele>
        <time>2021-07-05T08:12:54Z</time>
      </trkpt>
      <trkpt lat="44.88054" lon="5.68897">
        <ele>471.1833496</ele>
        <time>2021-07-05T08:13:17Z</time>
      </trkpt>
      <trkpt lat="44.88053" lon="5.68897">
        <ele>471.6639404</ele>
        <time>2021-07-05T08:14:09Z</time>
      </trkpt>
      <trkpt lat="44.88041" lon="5.68911">
        <ele>473.5866699</ele>
        <time>2021-07-05T08:14:32Z</time>
      </trkpt>
      <trkpt lat="44.88021" lon="5.68927">
        <ele>474.5479736</ele>
        <time>2021-07-05T08:14:56Z</time>
      </trkpt>
      <trkpt lat="44.8802" lon="5.68928">
        <ele>474.5479736</ele>
        <time>2021-07-05T08:14:57Z</time>
      </trkpt>
      <trkpt lat="44.88016" lon="5.68933">
        <ele>475.0286865</ele>
        <time>2021-07-05T08:15:01Z</time>
      </trkpt>
      <trkpt lat="44.88001" lon="5.68941">
        <ele>474.5479736</ele>
        <time>2021-07-05T08:15:17Z</time>
      </trkpt>
      <trkpt lat="44.87984" lon="5.6896">
        <ele>475.0286865</ele>
        <time>2021-07-05T08:15:41Z</time>
      </trkpt>
      <trkpt lat="44.87968" lon="5.68972">
        <ele>475.5092773</ele>
        <time>2021-07-05T08:15:59Z</time>
      </trkpt>
      <trkpt lat="44.87963" lon="5.68975">
        <ele>474.5479736</ele>
        <time>2021-07-05T08:16:04Z</time>
      </trkpt>
      <trkpt lat="44.87949" lon="5.68983">
        <ele>474.5479736</ele>
        <time>2021-07-05T08:16:20Z</time>
      </trkpt>
      <trkpt lat="44.87932" lon="5.68986">
        <ele>474.0672607</ele>
        <time>2021-07-05T08:16:40Z</time>
      </trkpt>
      <trkpt lat="44.87929" lon="5.68987">
        <ele>473.5866699</ele>
        <time>2021-07-05T08:16:44Z</time>
      </trkpt>
      <trkpt lat="44.87907" lon="5.69">
        <ele>475.5092773</ele>
        <time>2021-07-05T08:17:05Z</time>
      </trkpt>
      <trkpt lat="44.87888" lon="5.69021">
        <ele>477.4318848</ele>
        <time>2021-07-05T08:17:30Z</time>
      </trkpt>
      <trkpt lat="44.87871" lon="5.69046">
        <ele>479.835083</ele>
        <time>2021-07-05T08:17:57Z</time>
      </trkpt>
      <trkpt lat="44.87861" lon="5.69077">
        <ele>483.1998291</ele>
        <time>2021-07-05T08:18:22Z</time>
      </trkpt>
      <trkpt lat="44.87856" lon="5.69092">
        <ele>484.6418457</ele>
        <time>2021-07-05T08:18:36Z</time>
      </trkpt>
      <trkpt lat="44.87839" lon="5.69105">
        <ele>485.1224365</ele>
        <time>2021-07-05T08:18:55Z</time>
      </trkpt>
      <trkpt lat="44.87817" lon="5.6912">
        <ele>485.6030273</ele>
        <time>2021-07-05T08:19:19Z</time>
      </trkpt>
      <trkpt lat="44.87798" lon="5.69133">
        <ele>485.6030273</ele>
        <time>2021-07-05T08:19:38Z</time>
      </trkpt>
      <trkpt lat="44.87779" lon="5.69147">
        <ele>485.6030273</ele>
        <time>2021-07-05T08:19:57Z</time>
      </trkpt>
      <trkpt lat="44.87754" lon="5.69164">
        <ele>486.5644531</ele>
        <time>2021-07-05T08:20:21Z</time>
      </trkpt>
      <trkpt lat="44.87731" lon="5.69194">
        <ele>487.0450439</ele>
        <time>2021-07-05T08:20:47Z</time>
      </trkpt>
      <trkpt lat="44.87722" lon="5.6923">
        <ele>487.0450439</ele>
        <time>2021-07-05T08:21:11Z</time>
      </trkpt>
      <trkpt lat="44.87714" lon="5.69273">
        <ele>485.6030273</ele>
        <time>2021-07-05T08:21:39Z</time>
      </trkpt>
      <trkpt lat="44.87708" lon="5.69311">
        <ele>485.6030273</ele>
        <time>2021-07-05T08:22:05Z</time>
      </trkpt>
      <trkpt lat="44.87704" lon="5.69333">
        <ele>486.0837402</ele>
        <time>2021-07-05T08:22:20Z</time>
      </trkpt>
      <trkpt lat="44.87696" lon="5.69367">
        <ele>487.0450439</ele>
        <time>2021-07-05T08:22:44Z</time>
      </trkpt>
      <trkpt lat="44.87696" lon="5.694">
        <ele>488.0064697</ele>
        <time>2021-07-05T08:23:07Z</time>
      </trkpt>
      <trkpt lat="44.87702" lon="5.69434">
        <ele>488.9677734</ele>
        <time>2021-07-05T08:23:31Z</time>
      </trkpt>
      <trkpt lat="44.87715" lon="5.6946">
        <ele>489.9290771</ele>
        <time>2021-07-05T08:23:53Z</time>
      </trkpt>
      <trkpt lat="44.87716" lon="5.69462">
        <ele>489.9290771</ele>
        <time>2021-07-05T08:23:55Z</time>
      </trkpt>
      <trkpt lat="44.87726" lon="5.69478">
        <ele>490.8903809</ele>
        <time>2021-07-05T08:24:10Z</time>
      </trkpt>
      <trkpt lat="44.8773" lon="5.69482">
        <ele>490.8903809</ele>
        <time>2021-07-05T08:24:15Z</time>
      </trkpt>
      <trkpt lat="44.87742" lon="5.69507">
        <ele>491.8516846</ele>
        <time>2021-07-05T08:24:34Z</time>
      </trkpt>
      <trkpt lat="44.87743" lon="5.69516">
        <ele>491.8516846</ele>
        <time>2021-07-05T08:24:38Z</time>
      </trkpt>
      <trkpt lat="44.8774" lon="5.69534">
        <ele>492.3323975</ele>
        <time>2021-07-05T08:24:48Z</time>
      </trkpt>
      <trkpt lat="44.87723" lon="5.69549">
        <ele>493.774292</ele>
        <time>2021-07-05T08:25:08Z</time>
      </trkpt>
      <trkpt lat="44.87722" lon="5.69549">
        <ele>493.774292</ele>
        <time>2021-07-05T08:25:09Z</time>
      </trkpt>
      <trkpt lat="44.87704" lon="5.69551">
        <ele>495.6968994</ele>
        <time>2021-07-05T08:25:25Z</time>
      </trkpt>
      <trkpt lat="44.87687" lon="5.69551">
        <ele>497.138916</ele>
        <time>2021-07-05T08:25:41Z</time>
      </trkpt>
      <trkpt lat="44.87682" lon="5.69553">
        <ele>497.6196289</ele>
        <time>2021-07-05T08:25:46Z</time>
      </trkpt>
      <trkpt lat="44.87669" lon="5.69555">
        <ele>499.0615234</ele>
        <time>2021-07-05T08:26:05Z</time>
      </trkpt>
      <trkpt lat="44.87666" lon="5.69544">
        <ele>498.1003418</ele>
        <time>2021-07-05T08:26:19Z</time>
      </trkpt>
      <trkpt lat="44.87665" lon="5.69543">
        <ele>497.6196289</ele>
        <time>2021-07-05T08:26:21Z</time>
      </trkpt>
      <trkpt lat="44.87661" lon="5.69543">
        <ele>497.6196289</ele>
        <time>2021-07-05T08:26:25Z</time>
      </trkpt>
      <trkpt lat="44.87644" lon="5.69544">
        <ele>493.774292</ele>
        <time>2021-07-05T08:26:43Z</time>
      </trkpt>
      <trkpt lat="44.87643" lon="5.69545">
        <ele>493.774292</ele>
        <time>2021-07-05T08:26:44Z</time>
      </trkpt>
      <trkpt lat="44.87636" lon="5.69562">
        <ele>492.8129883</ele>
        <time>2021-07-05T08:26:56Z</time>
      </trkpt>
      <trkpt lat="44.87632" lon="5.69574">
        <ele>491.8516846</ele>
        <time>2021-07-05T08:27:05Z</time>
      </trkpt>
      <trkpt lat="44.87626" lon="5.69579">
        <ele>490.40979</ele>
        <time>2021-07-05T08:27:12Z</time>
      </trkpt>
      <trkpt lat="44.8762" lon="5.69585">
        <ele>489.4483643</ele>
        <time>2021-07-05T08:27:19Z</time>
      </trkpt>
      <trkpt lat="44.87612" lon="5.69597">
        <ele>488.0064697</ele>
        <time>2021-07-05T08:27:28Z</time>
      </trkpt>
      <trkpt lat="44.87595" lon="5.69638">
        <ele>489.9290771</ele>
        <time>2021-07-05T08:27:55Z</time>
      </trkpt>
      <trkpt lat="44.87589" lon="5.69658">
        <ele>488.4871826</ele>
        <time>2021-07-05T08:28:12Z</time>
      </trkpt>
      <trkpt lat="44.87591" lon="5.69663">
        <ele>487.0450439</ele>
        <time>2021-07-05T08:28:19Z</time>
      </trkpt>
      <trkpt lat="44.87587" lon="5.69671">
        <ele>486.0837402</ele>
        <time>2021-07-05T08:28:26Z</time>
      </trkpt>
      <trkpt lat="44.87581" lon="5.69677">
        <ele>487.0450439</ele>
        <time>2021-07-05T08:28:29Z</time>
      </trkpt>
      <trkpt lat="44.87578" lon="5.69682">
        <ele>488.0064697</ele>
        <time>2021-07-05T08:28:34Z</time>
      </trkpt>
      <trkpt lat="44.87577" lon="5.69704">
        <ele>486.5644531</ele>
        <time>2021-07-05T08:28:44Z</time>
      </trkpt>
      <trkpt lat="44.87574" lon="5.69709">
        <ele>485.6030273</ele>
        <time>2021-07-05T08:28:51Z</time>
      </trkpt>
      <trkpt lat="44.87566" lon="5.697">
        <ele>483.6804199</ele>
        <time>2021-07-05T08:29:05Z</time>
      </trkpt>
      <trkpt lat="44.87554" lon="5.69686">
        <ele>487.0450439</ele>
        <time>2021-07-05T08:29:25Z</time>
      </trkpt>
      <trkpt lat="44.87548" lon="5.69686">
        <ele>488.4871826</ele>
        <time>2021-07-05T08:29:31Z</time>
      </trkpt>
      <trkpt lat="44.87539" lon="5.69686">
        <ele>490.40979</ele>
        <time>2021-07-05T08:29:38Z</time>
      </trkpt>
      <trkpt lat="44.87525" lon="5.6969">
        <ele>490.8903809</ele>
        <time>2021-07-05T08:29:49Z</time>
      </trkpt>
      <trkpt lat="44.87523" lon="5.69691">
        <ele>490.40979</ele>
        <time>2021-07-05T08:29:51Z</time>
      </trkpt>
      <trkpt lat="44.87521" lon="5.69689">
        <ele>490.40979</ele>
        <time>2021-07-05T08:29:53Z</time>
      </trkpt>
      <trkpt lat="44.87509" lon="5.69687">
        <ele>487.0450439</ele>
        <time>2021-07-05T08:30:04Z</time>
      </trkpt>
      <trkpt lat="44.87496" lon="5.69688">
        <ele>486.5644531</ele>
        <time>2021-07-05T08:30:17Z</time>
      </trkpt>
      <trkpt lat="44.87484" lon="5.69698">
        <ele>485.6030273</ele>
        <time>2021-07-05T08:30:29Z</time>
      </trkpt>
      <trkpt lat="44.87477" lon="5.69707">
        <ele>486.5644531</ele>
        <time>2021-07-05T08:30:38Z</time>
      </trkpt>
      <trkpt lat="44.8747" lon="5.69709">
        <ele>487.5256348</ele>
        <time>2021-07-05T08:30:43Z</time>
      </trkpt>
      <trkpt lat="44.87455" lon="5.6972">
        <ele>490.40979</ele>
        <time>2021-07-05T08:30:59Z</time>
      </trkpt>
      <trkpt lat="44.87443" lon="5.69733">
        <ele>493.774292</ele>
        <time>2021-07-05T08:31:14Z</time>
      </trkpt>
      <trkpt lat="44.8744" lon="5.69736">
        <ele>494.2550049</ele>
        <time>2021-07-05T08:31:26Z</time>
      </trkpt>
      <trkpt lat="44.87436" lon="5.69742">
        <ele>495.6968994</ele>
        <time>2021-07-05T08:31:51Z</time>
      </trkpt>
      <trkpt lat="44.87431" lon="5.69757">
        <ele>497.6196289</ele>
        <time>2021-07-05T08:32:07Z</time>
      </trkpt>
      <trkpt lat="44.87424" lon="5.69782">
        <ele>500.50354</ele>
        <time>2021-07-05T08:32:29Z</time>
      </trkpt>
      <trkpt lat="44.87418" lon="5.69796">
        <ele>502.4261475</ele>
        <time>2021-07-05T08:32:42Z</time>
      </trkpt>
      <trkpt lat="44.87414" lon="5.69812">
        <ele>505.3101807</ele>
        <time>2021-07-05T08:32:58Z</time>
      </trkpt>
      <trkpt lat="44.87415" lon="5.69811">
        <ele>505.3101807</ele>
        <time>2021-07-05T08:33:01Z</time>
      </trkpt>
      <trkpt lat="44.87431" lon="5.69801">
        <ele>508.1940918</ele>
        <time>2021-07-05T08:33:23Z</time>
      </trkpt>
      <trkpt lat="44.87447" lon="5.69792">
        <ele>510.1166992</ele>
        <time>2021-07-05T08:33:42Z</time>
      </trkpt>
      <trkpt lat="44.87461" lon="5.69783">
        <ele>512.5200195</ele>
        <time>2021-07-05T08:33:58Z</time>
      </trkpt>
      <trkpt lat="44.87465" lon="5.69795">
        <ele>513.4814453</ele>
        <time>2021-07-05T08:34:07Z</time>
      </trkpt>
      <trkpt lat="44.87452" lon="5.69821">
        <ele>516.8459473</ele>
        <time>2021-07-05T08:34:28Z</time>
      </trkpt>
      <trkpt lat="44.87441" lon="5.69848">
        <ele>519.7298584</ele>
        <time>2021-07-05T08:34:49Z</time>
      </trkpt>
      <trkpt lat="44.87429" lon="5.69875">
        <ele>522.1331787</ele>
        <time>2021-07-05T08:35:12Z</time>
      </trkpt>
      <trkpt lat="44.87418" lon="5.69894">
        <ele>525.4978027</ele>
        <time>2021-07-05T08:35:29Z</time>
      </trkpt>
      <trkpt lat="44.87405" lon="5.69921">
        <ele>528.8625488</ele>
        <time>2021-07-05T08:35:52Z</time>
      </trkpt>
      <trkpt lat="44.87396" lon="5.69937">
        <ele>529.8237305</ele>
        <time>2021-07-05T08:36:08Z</time>
      </trkpt>
      <trkpt lat="44.87392" lon="5.69949">
        <ele>530.7851563</ele>
        <time>2021-07-05T08:36:16Z</time>
      </trkpt>
      <trkpt lat="44.87386" lon="5.69961">
        <ele>532.2270508</ele>
        <time>2021-07-05T08:36:31Z</time>
      </trkpt>
      <trkpt lat="44.8738" lon="5.69974">
        <ele>533.6689453</ele>
        <time>2021-07-05T08:36:52Z</time>
      </trkpt>
      <trkpt lat="44.87376" lon="5.69981">
        <ele>534.6303711</ele>
        <time>2021-07-05T08:37:08Z</time>
      </trkpt>
      <trkpt lat="44.87365" lon="5.69994">
        <ele>536.5531006</ele>
        <time>2021-07-05T08:37:25Z</time>
      </trkpt>
      <trkpt lat="44.87355" lon="5.70004">
        <ele>537.9949951</ele>
        <time>2021-07-05T08:37:40Z</time>
      </trkpt>
      <trkpt lat="44.87347" lon="5.70009">
        <ele>538.475708</ele>
        <time>2021-07-05T08:37:50Z</time>
      </trkpt>
      <trkpt lat="44.87347" lon="5.70011">
        <ele>538.475708</ele>
        <time>2021-07-05T08:38:03Z</time>
      </trkpt>
      <trkpt lat="44.87341" lon="5.70011">
        <ele>538.9562988</ele>
        <time>2021-07-05T08:38:59Z</time>
      </trkpt>
      <trkpt lat="44.87337" lon="5.70011">
        <ele>539.4368896</ele>
        <time>2021-07-05T08:39:39Z</time>
      </trkpt>
      <trkpt lat="44.87331" lon="5.70014">
        <ele>539.9176025</ele>
        <time>2021-07-05T08:39:51Z</time>
      </trkpt>
      <trkpt lat="44.87328" lon="5.70019">
        <ele>540.3983154</ele>
        <time>2021-07-05T08:40:06Z</time>
      </trkpt>
      <trkpt lat="44.87316" lon="5.70022">
        <ele>540.8789063</ele>
        <time>2021-07-05T08:40:23Z</time>
      </trkpt>
      <trkpt lat="44.87305" lon="5.70022">
        <ele>541.84021</ele>
        <time>2021-07-05T08:40:37Z</time>
      </trkpt>
      <trkpt lat="44.87289" lon="5.70026">
        <ele>542.3209229</ele>
        <time>2021-07-05T08:40:52Z</time>
      </trkpt>
      <trkpt lat="44.87273" lon="5.70031">
        <ele>543.7628174</ele>
        <time>2021-07-05T08:41:06Z</time>
      </trkpt>
      <trkpt lat="44.87251" lon="5.70036">
        <ele>545.204834</ele>
        <time>2021-07-05T08:41:26Z</time>
      </trkpt>
      <trkpt lat="44.87227" lon="5.70045">
        <ele>546.6468506</ele>
        <time>2021-07-05T08:41:49Z</time>
      </trkpt>
      <trkpt lat="44.87208" lon="5.70053">
        <ele>548.0888672</ele>
        <time>2021-07-05T08:42:07Z</time>
      </trkpt>
      <trkpt lat="44.87205" lon="5.70077">
        <ele>548.5693359</ele>
        <time>2021-07-05T08:42:26Z</time>
      </trkpt>
      <trkpt lat="44.8722" lon="5.70114">
        <ele>548.5693359</ele>
        <time>2021-07-05T08:42:54Z</time>
      </trkpt>
      <trkpt lat="44.87236" lon="5.70156">
        <ele>548.5693359</ele>
        <time>2021-07-05T08:43:23Z</time>
      </trkpt>
      <trkpt lat="44.87243" lon="5.70195">
        <ele>550.0114746</ele>
        <time>2021-07-05T08:43:46Z</time>
      </trkpt>
      <trkpt lat="44.87244" lon="5.70239">
        <ele>549.5307617</ele>
        <time>2021-07-05T08:44:13Z</time>
      </trkpt>
      <trkpt lat="44.87256" lon="5.70289">
        <ele>550.9726563</ele>
        <time>2021-07-05T08:44:42Z</time>
      </trkpt>
      <trkpt lat="44.87275" lon="5.70325">
        <ele>551.934082</ele>
        <time>2021-07-05T08:45:09Z</time>
      </trkpt>
      <trkpt lat="44.87293" lon="5.70357">
        <ele>553.8566895</ele>
        <time>2021-07-05T08:45:33Z</time>
      </trkpt>
      <trkpt lat="44.87301" lon="5.70383">
        <ele>554.3374023</ele>
        <time>2021-07-05T08:45:51Z</time>
      </trkpt>
      <trkpt lat="44.87316" lon="5.70409">
        <ele>553.3759766</ele>
        <time>2021-07-05T08:46:16Z</time>
      </trkpt>
      <trkpt lat="44.87317" lon="5.70416">
        <ele>553.3759766</ele>
        <time>2021-07-05T08:46:32Z</time>
      </trkpt>
      <trkpt lat="44.87316" lon="5.70417">
        <ele>553.3759766</ele>
        <time>2021-07-05T08:46:41Z</time>
      </trkpt>
      <trkpt lat="44.87313" lon="5.70417">
        <ele>552.4145508</ele>
        <time>2021-07-05T08:46:44Z</time>
      </trkpt>
      <trkpt lat="44.87309" lon="5.7042">
        <ele>550.9726563</ele>
        <time>2021-07-05T08:46:47Z</time>
      </trkpt>
      <trkpt lat="44.87295" lon="5.70421">
        <ele>549.0500488</ele>
        <time>2021-07-05T08:47:01Z</time>
      </trkpt>
      <trkpt lat="44.87289" lon="5.70423">
        <ele>548.0888672</ele>
        <time>2021-07-05T08:47:09Z</time>
      </trkpt>
      <trkpt lat="44.87273" lon="5.70427">
        <ele>546.6468506</ele>
        <time>2021-07-05T08:47:24Z</time>
      </trkpt>
      <trkpt lat="44.87263" lon="5.70427">
        <ele>545.6855469</ele>
        <time>2021-07-05T08:47:33Z</time>
      </trkpt>
      <trkpt lat="44.87259" lon="5.70429">
        <ele>545.204834</ele>
        <time>2021-07-05T08:47:37Z</time>
      </trkpt>
      <trkpt lat="44.87246" lon="5.70437">
        <ele>544.7242432</ele>
        <time>2021-07-05T08:47:48Z</time>
      </trkpt>
      <trkpt lat="44.87234" lon="5.70448">
        <ele>542.3209229</ele>
        <time>2021-07-05T08:48:03Z</time>
      </trkpt>
      <trkpt lat="44.87224" lon="5.70456">
        <ele>540.3983154</ele>
        <time>2021-07-05T08:48:12Z</time>
      </trkpt>
      <trkpt lat="44.87217" lon="5.70481">
        <ele>537.9949951</ele>
        <time>2021-07-05T08:48:29Z</time>
      </trkpt>
      <trkpt lat="44.87226" lon="5.70519">
        <ele>537.5142822</ele>
        <time>2021-07-05T08:48:54Z</time>
      </trkpt>
      <trkpt lat="44.87226" lon="5.70523">
        <ele>537.0336914</ele>
        <time>2021-07-05T08:48:57Z</time>
      </trkpt>
      <trkpt lat="44.87222" lon="5.7053">
        <ele>537.0336914</ele>
        <time>2021-07-05T08:49:04Z</time>
      </trkpt>
      <trkpt lat="44.87216" lon="5.7055">
        <ele>537.5142822</ele>
        <time>2021-07-05T08:49:19Z</time>
      </trkpt>
      <trkpt lat="44.87212" lon="5.70566">
        <ele>537.9949951</ele>
        <time>2021-07-05T08:49:37Z</time>
      </trkpt>
      <trkpt lat="44.87212" lon="5.70569">
        <ele>538.475708</ele>
        <time>2021-07-05T08:49:49Z</time>
      </trkpt>
      <trkpt lat="44.87212" lon="5.7057">
        <ele>538.475708</ele>
        <time>2021-07-05T08:50:50Z</time>
      </trkpt>
      <trkpt lat="44.87207" lon="5.70582">
        <ele>539.4368896</ele>
        <time>2021-07-05T08:51:13Z</time>
      </trkpt>
      <trkpt lat="44.87191" lon="5.70614">
        <ele>539.4368896</ele>
        <time>2021-07-05T08:51:38Z</time>
      </trkpt>
      <trkpt lat="44.87176" lon="5.70637">
        <ele>537.0336914</ele>
        <time>2021-07-05T08:51:58Z</time>
      </trkpt>
      <trkpt lat="44.87174" lon="5.70641">
        <ele>537.0336914</ele>
        <time>2021-07-05T08:52:01Z</time>
      </trkpt>
      <trkpt lat="44.87165" lon="5.70655">
        <ele>534.1496582</ele>
        <time>2021-07-05T08:52:13Z</time>
      </trkpt>
      <trkpt lat="44.87152" lon="5.70671">
        <ele>531.7463379</ele>
        <time>2021-07-05T08:52:32Z</time>
      </trkpt>
      <trkpt lat="44.87145" lon="5.70681">
        <ele>530.7851563</ele>
        <time>2021-07-05T08:52:41Z</time>
      </trkpt>
      <trkpt lat="44.87138" lon="5.70695">
        <ele>529.8237305</ele>
        <time>2021-07-05T08:52:52Z</time>
      </trkpt>
      <trkpt lat="44.87139" lon="5.70703">
        <ele>528.8625488</ele>
        <time>2021-07-05T08:52:59Z</time>
      </trkpt>
      <trkpt lat="44.87153" lon="5.70714">
        <ele>526.9398193</ele>
        <time>2021-07-05T08:53:17Z</time>
      </trkpt>
      <trkpt lat="44.87162" lon="5.70729">
        <ele>525.4978027</ele>
        <time>2021-07-05T08:53:31Z</time>
      </trkpt>
      <trkpt lat="44.87167" lon="5.70749">
        <ele>523.5751953</ele>
        <time>2021-07-05T08:53:44Z</time>
      </trkpt>
      <trkpt lat="44.8717" lon="5.70756">
        <ele>523.0946045</ele>
        <time>2021-07-05T08:53:48Z</time>
      </trkpt>
      <trkpt lat="44.87169" lon="5.70769">
        <ele>522.1331787</ele>
        <time>2021-07-05T08:53:56Z</time>
      </trkpt>
      <trkpt lat="44.87169" lon="5.70775">
        <ele>522.1331787</ele>
        <time>2021-07-05T08:54:00Z</time>
      </trkpt>
      <trkpt lat="44.87168" lon="5.70781">
        <ele>521.6525879</ele>
        <time>2021-07-05T08:54:04Z</time>
      </trkpt>
      <trkpt lat="44.87169" lon="5.70796">
        <ele>520.6912842</ele>
        <time>2021-07-05T08:54:10Z</time>
      </trkpt>
      <trkpt lat="44.87157" lon="5.70802">
        <ele>522.1331787</ele>
        <time>2021-07-05T08:54:27Z</time>
      </trkpt>
      <trkpt lat="44.87138" lon="5.70807">
        <ele>524.0557861</ele>
        <time>2021-07-05T08:54:44Z</time>
      </trkpt>
      <trkpt lat="44.8712" lon="5.70809">
        <ele>525.4978027</ele>
        <time>2021-07-05T08:54:56Z</time>
      </trkpt>
      <trkpt lat="44.87111" lon="5.70814">
        <ele>525.4978027</ele>
        <time>2021-07-05T08:55:06Z</time>
      </trkpt>
      <trkpt lat="44.87109" lon="5.70844">
        <ele>525.9783936</ele>
        <time>2021-07-05T08:55:25Z</time>
      </trkpt>
      <trkpt lat="44.87104" lon="5.70856">
        <ele>525.9783936</ele>
        <time>2021-07-05T08:55:34Z</time>
      </trkpt>
      <trkpt lat="44.87096" lon="5.70859">
        <ele>525.9783936</ele>
        <time>2021-07-05T08:55:40Z</time>
      </trkpt>
      <trkpt lat="44.87082" lon="5.70856">
        <ele>527.4204102</ele>
        <time>2021-07-05T08:55:53Z</time>
      </trkpt>
      <trkpt lat="44.8708" lon="5.70855">
        <ele>527.4204102</ele>
        <time>2021-07-05T08:55:55Z</time>
      </trkpt>
      <trkpt lat="44.87066" lon="5.70848">
        <ele>527.4204102</ele>
        <time>2021-07-05T08:56:05Z</time>
      </trkpt>
      <trkpt lat="44.87057" lon="5.70833">
        <ele>527.901001</ele>
        <time>2021-07-05T08:56:19Z</time>
      </trkpt>
      <trkpt lat="44.87054" lon="5.70833">
        <ele>528.3818359</ele>
        <time>2021-07-05T08:56:22Z</time>
      </trkpt>
      <trkpt lat="44.87038" lon="5.70839">
        <ele>529.3431396</ele>
        <time>2021-07-05T08:56:39Z</time>
      </trkpt>
      <trkpt lat="44.87033" lon="5.70845">
        <ele>530.3044434</ele>
        <time>2021-07-05T08:56:53Z</time>
      </trkpt>
      <trkpt lat="44.87032" lon="5.70854">
        <ele>530.7851563</ele>
        <time>2021-07-05T08:57:05Z</time>
      </trkpt>
      <trkpt lat="44.87033" lon="5.70861">
        <ele>530.3044434</ele>
        <time>2021-07-05T08:57:09Z</time>
      </trkpt>
      <trkpt lat="44.87032" lon="5.70887">
        <ele>530.3044434</ele>
        <time>2021-07-05T08:57:26Z</time>
      </trkpt>
      <trkpt lat="44.87019" lon="5.70909">
        <ele>532.7077637</ele>
        <time>2021-07-05T08:57:46Z</time>
      </trkpt>
      <trkpt lat="44.87012" lon="5.70925">
        <ele>534.6303711</ele>
        <time>2021-07-05T08:58:00Z</time>
      </trkpt>
      <trkpt lat="44.87007" lon="5.70934">
        <ele>536.0723877</ele>
        <time>2021-07-05T08:58:08Z</time>
      </trkpt>
      <trkpt lat="44.87004" lon="5.70941">
        <ele>537.0336914</ele>
        <time>2021-07-05T08:58:14Z</time>
      </trkpt>
      <trkpt lat="44.86999" lon="5.70949">
        <ele>537.5142822</ele>
        <time>2021-07-05T08:58:21Z</time>
      </trkpt>
      <trkpt lat="44.86993" lon="5.70952">
        <ele>539.4368896</ele>
        <time>2021-07-05T08:58:32Z</time>
      </trkpt>
      <trkpt lat="44.8698" lon="5.70952">
        <ele>540.3983154</ele>
        <time>2021-07-05T08:58:46Z</time>
      </trkpt>
      <trkpt lat="44.86977" lon="5.70953">
        <ele>538.475708</ele>
        <time>2021-07-05T08:58:56Z</time>
      </trkpt>
      <trkpt lat="44.86972" lon="5.70951">
        <ele>537.9949951</ele>
        <time>2021-07-05T08:59:10Z</time>
      </trkpt>
      <trkpt lat="44.86963" lon="5.70945">
        <ele>535.1109619</ele>
        <time>2021-07-05T09:00:13Z</time>
      </trkpt>
      <trkpt lat="44.86956" lon="5.70941">
        <ele>534.1496582</ele>
        <time>2021-07-05T09:00:20Z</time>
      </trkpt>
      <trkpt lat="44.86953" lon="5.70941">
        <ele>533.6689453</ele>
        <time>2021-07-05T09:00:23Z</time>
      </trkpt>
      <trkpt lat="44.86942" lon="5.70932">
        <ele>531.7463379</ele>
        <time>2021-07-05T09:00:34Z</time>
      </trkpt>
      <trkpt lat="44.86927" lon="5.70917">
        <ele>529.8237305</ele>
        <time>2021-07-05T09:00:49Z</time>
      </trkpt>
      <trkpt lat="44.86915" lon="5.70908">
        <ele>528.3818359</ele>
        <time>2021-07-05T09:01:04Z</time>
      </trkpt>
      <trkpt lat="44.86907" lon="5.70904">
        <ele>526.9398193</ele>
        <time>2021-07-05T09:01:17Z</time>
      </trkpt>
      <trkpt lat="44.86902" lon="5.70899">
        <ele>527.4204102</ele>
        <time>2021-07-05T09:01:28Z</time>
      </trkpt>
      <trkpt lat="44.86892" lon="5.70886">
        <ele>526.4591064</ele>
        <time>2021-07-05T09:01:43Z</time>
      </trkpt>
      <trkpt lat="44.86878" lon="5.70872">
        <ele>525.4978027</ele>
        <time>2021-07-05T09:01:59Z</time>
      </trkpt>
      <trkpt lat="44.86865" lon="5.7086">
        <ele>525.9783936</ele>
        <time>2021-07-05T09:02:22Z</time>
      </trkpt>
      <trkpt lat="44.86853" lon="5.70852">
        <ele>526.4591064</ele>
        <time>2021-07-05T09:02:36Z</time>
      </trkpt>
      <trkpt lat="44.86845" lon="5.70842">
        <ele>526.9398193</ele>
        <time>2021-07-05T09:02:50Z</time>
      </trkpt>
      <trkpt lat="44.86838" lon="5.70831">
        <ele>527.4204102</ele>
        <time>2021-07-05T09:03:04Z</time>
      </trkpt>
      <trkpt lat="44.86834" lon="5.70826">
        <ele>528.8625488</ele>
        <time>2021-07-05T09:03:13Z</time>
      </trkpt>
      <trkpt lat="44.86825" lon="5.70819">
        <ele>530.7851563</ele>
        <time>2021-07-05T09:03:30Z</time>
      </trkpt>
      <trkpt lat="44.86813" lon="5.7081">
        <ele>532.7077637</ele>
        <time>2021-07-05T09:03:45Z</time>
      </trkpt>
      <trkpt lat="44.86805" lon="5.70807">
        <ele>533.6689453</ele>
        <time>2021-07-05T09:03:51Z</time>
      </trkpt>
      <trkpt lat="44.86799" lon="5.70801">
        <ele>535.1109619</ele>
        <time>2021-07-05T09:03:56Z</time>
      </trkpt>
      <trkpt lat="44.86797" lon="5.70798">
        <ele>536.5531006</ele>
        <time>2021-07-05T09:04:07Z</time>
      </trkpt>
      <trkpt lat="44.86794" lon="5.70792">
        <ele>537.5142822</ele>
        <time>2021-07-05T09:04:20Z</time>
      </trkpt>
      <trkpt lat="44.86792" lon="5.70787">
        <ele>537.9949951</ele>
        <time>2021-07-05T09:04:27Z</time>
      </trkpt>
      <trkpt lat="44.86792" lon="5.70776">
        <ele>537.5142822</ele>
        <time>2021-07-05T09:04:43Z</time>
      </trkpt>
      <trkpt lat="44.86792" lon="5.70775">
        <ele>537.9949951</ele>
        <time>2021-07-05T09:04:44Z</time>
      </trkpt>
      <trkpt lat="44.86791" lon="5.70768">
        <ele>536.5531006</ele>
        <time>2021-07-05T09:04:54Z</time>
      </trkpt>
      <trkpt lat="44.86791" lon="5.70755">
        <ele>532.7077637</ele>
        <time>2021-07-05T09:05:07Z</time>
      </trkpt>
      <trkpt lat="44.86787" lon="5.70747">
        <ele>530.7851563</ele>
        <time>2021-07-05T09:05:15Z</time>
      </trkpt>
      <trkpt lat="44.86786" lon="5.70745">
        <ele>530.7851563</ele>
        <time>2021-07-05T09:05:16Z</time>
      </trkpt>
      <trkpt lat="44.86784" lon="5.7074">
        <ele>529.8237305</ele>
        <time>2021-07-05T09:05:21Z</time>
      </trkpt>
      <trkpt lat="44.86781" lon="5.70724">
        <ele>526.9398193</ele>
        <time>2021-07-05T09:05:35Z</time>
      </trkpt>
      <trkpt lat="44.86783" lon="5.70714">
        <ele>526.4591064</ele>
        <time>2021-07-05T09:05:43Z</time>
      </trkpt>
      <trkpt lat="44.8679" lon="5.70699">
        <ele>524.0557861</ele>
        <time>2021-07-05T09:05:57Z</time>
      </trkpt>
      <trkpt lat="44.86792" lon="5.70688">
        <ele>521.6525879</ele>
        <time>2021-07-05T09:06:06Z</time>
      </trkpt>
      <trkpt lat="44.86795" lon="5.70675">
        <ele>517.807251</ele>
        <time>2021-07-05T09:06:19Z</time>
      </trkpt>
      <trkpt lat="44.86796" lon="5.70674">
        <ele>517.807251</ele>
        <time>2021-07-05T09:06:20Z</time>
      </trkpt>
      <trkpt lat="44.86805" lon="5.70647">
        <ele>514.9233398</ele>
        <time>2021-07-05T09:06:37Z</time>
      </trkpt>
      <trkpt lat="44.86814" lon="5.70627">
        <ele>512.0394287</ele>
        <time>2021-07-05T09:06:53Z</time>
      </trkpt>
      <trkpt lat="44.86816" lon="5.70609">
        <ele>508.6746826</ele>
        <time>2021-07-05T09:07:10Z</time>
      </trkpt>
      <trkpt lat="44.86823" lon="5.70592">
        <ele>505.7908936</ele>
        <time>2021-07-05T09:07:22Z</time>
      </trkpt>
      <trkpt lat="44.86838" lon="5.70577">
        <ele>501.4648438</ele>
        <time>2021-07-05T09:07:37Z</time>
      </trkpt>
      <trkpt lat="44.86852" lon="5.70561">
        <ele>500.9841309</ele>
        <time>2021-07-05T09:08:01Z</time>
      </trkpt>
      <trkpt lat="44.86848" lon="5.70559">
        <ele>504.348877</ele>
        <time>2021-07-05T09:08:12Z</time>
      </trkpt>
      <trkpt lat="44.86849" lon="5.70553">
        <ele>504.348877</ele>
        <time>2021-07-05T09:08:20Z</time>
      </trkpt>
      <trkpt lat="44.86855" lon="5.7053">
        <ele>507.2327881</ele>
        <time>2021-07-05T09:08:41Z</time>
      </trkpt>
      <trkpt lat="44.86857" lon="5.70521">
        <ele>510.1166992</ele>
        <time>2021-07-05T09:08:53Z</time>
      </trkpt>
      <trkpt lat="44.86855" lon="5.70517">
        <ele>511.0780029</ele>
        <time>2021-07-05T09:08:55Z</time>
      </trkpt>
      <trkpt lat="44.8685" lon="5.70505">
        <ele>512.5200195</ele>
        <time>2021-07-05T09:09:05Z</time>
      </trkpt>
      <trkpt lat="44.86839" lon="5.70486">
        <ele>514.442627</ele>
        <time>2021-07-05T09:09:23Z</time>
      </trkpt>
      <trkpt lat="44.86844" lon="5.70465">
        <ele>517.3266602</ele>
        <time>2021-07-05T09:09:37Z</time>
      </trkpt>
      <trkpt lat="44.86844" lon="5.70448">
        <ele>520.2105713</ele>
        <time>2021-07-05T09:09:52Z</time>
      </trkpt>
      <trkpt lat="44.86839" lon="5.70423">
        <ele>522.1331787</ele>
        <time>2021-07-05T09:10:07Z</time>
      </trkpt>
      <trkpt lat="44.86836" lon="5.70415">
        <ele>522.6138916</ele>
        <time>2021-07-05T09:10:14Z</time>
      </trkpt>
      <trkpt lat="44.86831" lon="5.70393">
        <ele>525.0172119</ele>
        <time>2021-07-05T09:10:31Z</time>
      </trkpt>
      <trkpt lat="44.86832" lon="5.70376">
        <ele>527.901001</ele>
        <time>2021-07-05T09:10:49Z</time>
      </trkpt>
      <trkpt lat="44.86829" lon="5.70362">
        <ele>531.2657471</ele>
        <time>2021-07-05T09:11:03Z</time>
      </trkpt>
      <trkpt lat="44.86818" lon="5.70353">
        <ele>535.1109619</ele>
        <time>2021-07-05T09:11:19Z</time>
      </trkpt>
      <trkpt lat="44.86818" lon="5.70353">
        <ele>535.5915527</ele>
        <time>2021-07-05T09:11:20Z</time>
      </trkpt>
      <trkpt lat="44.86807" lon="5.7034">
        <ele>537.5142822</ele>
        <time>2021-07-05T09:11:34Z</time>
      </trkpt>
      <trkpt lat="44.86803" lon="5.70333">
        <ele>537.9949951</ele>
        <time>2021-07-05T09:11:41Z</time>
      </trkpt>
      <trkpt lat="44.86803" lon="5.70328">
        <ele>538.9562988</ele>
        <time>2021-07-05T09:11:51Z</time>
      </trkpt>
      <trkpt lat="44.86794" lon="5.70303">
        <ele>538.9562988</ele>
        <time>2021-07-05T09:12:07Z</time>
      </trkpt>
      <trkpt lat="44.86794" lon="5.70281">
        <ele>540.3983154</ele>
        <time>2021-07-05T09:12:23Z</time>
      </trkpt>
      <trkpt lat="44.86777" lon="5.70268">
        <ele>542.8015137</ele>
        <time>2021-07-05T09:12:40Z</time>
      </trkpt>
      <trkpt lat="44.86767" lon="5.70262">
        <ele>544.7242432</ele>
        <time>2021-07-05T09:12:51Z</time>
      </trkpt>
      <trkpt lat="44.86758" lon="5.70261">
        <ele>547.1274414</ele>
        <time>2021-07-05T09:13:03Z</time>
      </trkpt>
      <trkpt lat="44.86765" lon="5.70252">
        <ele>548.5693359</ele>
        <time>2021-07-05T09:13:12Z</time>
      </trkpt>
      <trkpt lat="44.86758" lon="5.70244">
        <ele>551.4533691</ele>
        <time>2021-07-05T09:13:24Z</time>
      </trkpt>
      <trkpt lat="44.86758" lon="5.70236">
        <ele>552.8952637</ele>
        <time>2021-07-05T09:13:31Z</time>
      </trkpt>
      <trkpt lat="44.86757" lon="5.70217">
        <ele>555.7792969</ele>
        <time>2021-07-05T09:13:49Z</time>
      </trkpt>
      <trkpt lat="44.86753" lon="5.70202">
        <ele>557.2214355</ele>
        <time>2021-07-05T09:14:02Z</time>
      </trkpt>
      <trkpt lat="44.86749" lon="5.7018">
        <ele>560.5859375</ele>
        <time>2021-07-05T09:14:20Z</time>
      </trkpt>
      <trkpt lat="44.86746" lon="5.70157">
        <ele>563.4699707</ele>
        <time>2021-07-05T09:14:38Z</time>
      </trkpt>
      <trkpt lat="44.86741" lon="5.70158">
        <ele>563.9504395</ele>
        <time>2021-07-05T09:14:39Z</time>
      </trkpt>
      <trkpt lat="44.86744" lon="5.70149">
        <ele>565.3925781</ele>
        <time>2021-07-05T09:14:50Z</time>
      </trkpt>
      <trkpt lat="44.8673" lon="5.70133">
        <ele>568.2763672</ele>
        <time>2021-07-05T09:15:08Z</time>
      </trkpt>
      <trkpt lat="44.86737" lon="5.70107">
        <ele>571.6408691</ele>
        <time>2021-07-05T09:15:25Z</time>
      </trkpt>
      <trkpt lat="44.86736" lon="5.70088">
        <ele>574.0444336</ele>
        <time>2021-07-05T09:15:43Z</time>
      </trkpt>
      <trkpt lat="44.8673" lon="5.70076">
        <ele>576.9284668</ele>
        <time>2021-07-05T09:16:01Z</time>
      </trkpt>
      <trkpt lat="44.86732" lon="5.70069">
        <ele>577.8896484</ele>
        <time>2021-07-05T09:16:25Z</time>
      </trkpt>
      <trkpt lat="44.86732" lon="5.70066">
        <ele>577.8896484</ele>
        <time>2021-07-05T09:16:58Z</time>
      </trkpt>
      <trkpt lat="44.86716" lon="5.70056">
        <ele>580.2929688</ele>
        <time>2021-07-05T09:17:18Z</time>
      </trkpt>
      <trkpt lat="44.86714" lon="5.70054">
        <ele>581.2543945</ele>
        <time>2021-07-05T09:17:26Z</time>
      </trkpt>
      <trkpt lat="44.86713" lon="5.70051">
        <ele>584.1381836</ele>
        <time>2021-07-05T09:17:38Z</time>
      </trkpt>
      <trkpt lat="44.86714" lon="5.7005">
        <ele>583.6574707</ele>
        <time>2021-07-05T09:17:43Z</time>
      </trkpt>
      <trkpt lat="44.86709" lon="5.70047">
        <ele>584.6188965</ele>
        <time>2021-07-05T09:17:47Z</time>
      </trkpt>
      <trkpt lat="44.86708" lon="5.70044">
        <ele>585.5800781</ele>
        <time>2021-07-05T09:17:49Z</time>
      </trkpt>
      <trkpt lat="44.86708" lon="5.70041">
        <ele>586.060791</ele>
        <time>2021-07-05T09:17:52Z</time>
      </trkpt>
      <trkpt lat="44.8671" lon="5.70035">
        <ele>586.5415039</ele>
        <time>2021-07-05T09:17:55Z</time>
      </trkpt>
      <trkpt lat="44.86702" lon="5.7002">
        <ele>589.4255371</ele>
        <time>2021-07-05T09:18:10Z</time>
      </trkpt>
      <trkpt lat="44.86702" lon="5.70019">
        <ele>589.90625</ele>
        <time>2021-07-05T09:18:11Z</time>
      </trkpt>
      <trkpt lat="44.86698" lon="5.70016">
        <ele>591.8288574</ele>
        <time>2021-07-05T09:18:20Z</time>
      </trkpt>
      <trkpt lat="44.86697" lon="5.70024">
        <ele>593.270752</ele>
        <time>2021-07-05T09:18:28Z</time>
      </trkpt>
      <trkpt lat="44.86687" lon="5.70032">
        <ele>595.1933594</ele>
        <time>2021-07-05T09:18:40Z</time>
      </trkpt>
      <trkpt lat="44.86686" lon="5.70034">
        <ele>595.1933594</ele>
        <time>2021-07-05T09:18:43Z</time>
      </trkpt>
      <trkpt lat="44.86676" lon="5.7004">
        <ele>598.5578613</ele>
        <time>2021-07-05T09:18:57Z</time>
      </trkpt>
      <trkpt lat="44.86668" lon="5.70035">
        <ele>599.0385742</ele>
        <time>2021-07-05T09:19:02Z</time>
      </trkpt>
      <trkpt lat="44.86659" lon="5.70037">
        <ele>601.4418945</ele>
        <time>2021-07-05T09:19:17Z</time>
      </trkpt>
      <trkpt lat="44.86651" lon="5.70026">
        <ele>603.8452148</ele>
        <time>2021-07-05T09:19:33Z</time>
      </trkpt>
      <trkpt lat="44.86648" lon="5.70009">
        <ele>602.8837891</ele>
        <time>2021-07-05T09:19:48Z</time>
      </trkpt>
      <trkpt lat="44.86647" lon="5.69991">
        <ele>600</ele>
        <time>2021-07-05T09:20:01Z</time>
      </trkpt>
      <trkpt lat="44.86649" lon="5.69983">
        <ele>598.5578613</ele>
        <time>2021-07-05T09:20:06Z</time>
      </trkpt>
      <trkpt lat="44.86647" lon="5.69973">
        <ele>598.5578613</ele>
        <time>2021-07-05T09:20:17Z</time>
      </trkpt>
      <trkpt lat="44.86645" lon="5.69967">
        <ele>598.5578613</ele>
        <time>2021-07-05T09:20:22Z</time>
      </trkpt>
      <trkpt lat="44.86645" lon="5.6996">
        <ele>599.0385742</ele>
        <time>2021-07-05T09:20:25Z</time>
      </trkpt>
      <trkpt lat="44.8664" lon="5.69955">
        <ele>599.0385742</ele>
        <time>2021-07-05T09:20:30Z</time>
      </trkpt>
      <trkpt lat="44.86629" lon="5.6994">
        <ele>599.0385742</ele>
        <time>2021-07-05T09:20:47Z</time>
      </trkpt>
      <trkpt lat="44.86611" lon="5.69917">
        <ele>596.635498</ele>
        <time>2021-07-05T09:21:07Z</time>
      </trkpt>
      <trkpt lat="44.86597" lon="5.69899">
        <ele>598.5578613</ele>
        <time>2021-07-05T09:21:29Z</time>
      </trkpt>
      <trkpt lat="44.86584" lon="5.69887">
        <ele>598.5578613</ele>
        <time>2021-07-05T09:21:48Z</time>
      </trkpt>
      <trkpt lat="44.86581" lon="5.6987">
        <ele>597.1159668</ele>
        <time>2021-07-05T09:22:22Z</time>
      </trkpt>
      <trkpt lat="44.86584" lon="5.69868">
        <ele>599.0385742</ele>
        <time>2021-07-05T09:23:05Z</time>
      </trkpt>
      <trkpt lat="44.86584" lon="5.69873">
        <ele>599.5192871</ele>
        <time>2021-07-05T09:23:15Z</time>
      </trkpt>
      <trkpt lat="44.86579" lon="5.6987">
        <ele>598.5578613</ele>
        <time>2021-07-05T09:23:26Z</time>
      </trkpt>
      <trkpt lat="44.86575" lon="5.6987">
        <ele>597.5966797</ele>
        <time>2021-07-05T09:24:05Z</time>
      </trkpt>
      <trkpt lat="44.86562" lon="5.69851">
        <ele>598.0773926</ele>
        <time>2021-07-05T09:24:29Z</time>
      </trkpt>
      <trkpt lat="44.86565" lon="5.69855">
        <ele>598.5578613</ele>
        <time>2021-07-05T09:25:05Z</time>
      </trkpt>
      <trkpt lat="44.8657" lon="5.69865">
        <ele>598.5578613</ele>
        <time>2021-07-05T09:25:54Z</time>
      </trkpt>
      <trkpt lat="44.86574" lon="5.69865">
        <ele>599.0385742</ele>
        <time>2021-07-05T09:26:14Z</time>
      </trkpt>
      <trkpt lat="44.86575" lon="5.69865">
        <ele>599.0385742</ele>
        <time>2021-07-05T09:26:44Z</time>
      </trkpt>
      <trkpt lat="44.8657" lon="5.69858">
        <ele>598.5578613</ele>
        <time>2021-07-05T09:27:22Z</time>
      </trkpt>
      <trkpt lat="44.86566" lon="5.69854">
        <ele>597.1159668</ele>
        <time>2021-07-05T09:27:28Z</time>
      </trkpt>
      <trkpt lat="44.86561" lon="5.69838">
        <ele>596.635498</ele>
        <time>2021-07-05T09:27:39Z</time>
      </trkpt>
      <trkpt lat="44.8656" lon="5.69837">
        <ele>596.635498</ele>
        <time>2021-07-05T09:27:42Z</time>
      </trkpt>
      <trkpt lat="44.86557" lon="5.69823">
        <ele>599.0385742</ele>
        <time>2021-07-05T09:27:55Z</time>
      </trkpt>
      <trkpt lat="44.86545" lon="5.69822">
        <ele>600.9611816</ele>
        <time>2021-07-05T09:28:12Z</time>
      </trkpt>
      <trkpt lat="44.86538" lon="5.69805">
        <ele>601.9226074</ele>
        <time>2021-07-05T09:28:25Z</time>
      </trkpt>
      <trkpt lat="44.86529" lon="5.69786">
        <ele>604.3261719</ele>
        <time>2021-07-05T09:28:39Z</time>
      </trkpt>
      <trkpt lat="44.8653" lon="5.69764">
        <ele>605.2873535</ele>
        <time>2021-07-05T09:28:54Z</time>
      </trkpt>
      <trkpt lat="44.86532" lon="5.69743">
        <ele>608.1713867</ele>
        <time>2021-07-05T09:29:13Z</time>
      </trkpt>
      <trkpt lat="44.86529" lon="5.69727">
        <ele>610.09375</ele>
        <time>2021-07-05T09:29:21Z</time>
      </trkpt>
      <trkpt lat="44.86529" lon="5.69697">
        <ele>609.6132813</ele>
        <time>2021-07-05T09:29:42Z</time>
      </trkpt>
      <trkpt lat="44.86542" lon="5.69691">
        <ele>606.729248</ele>
        <time>2021-07-05T09:30:00Z</time>
      </trkpt>
      <trkpt lat="44.86559" lon="5.69691">
        <ele>607.2099609</ele>
        <time>2021-07-05T09:30:18Z</time>
      </trkpt>
      <trkpt lat="44.86577" lon="5.69677">
        <ele>608.6518555</ele>
        <time>2021-07-05T09:30:33Z</time>
      </trkpt>
      <trkpt lat="44.86597" lon="5.69665">
        <ele>612.0166016</ele>
        <time>2021-07-05T09:30:53Z</time>
      </trkpt>
      <trkpt lat="44.86614" lon="5.6966">
        <ele>614.4196777</ele>
        <time>2021-07-05T09:31:08Z</time>
      </trkpt>
      <trkpt lat="44.86626" lon="5.69646">
        <ele>616.822998</ele>
        <time>2021-07-05T09:31:23Z</time>
      </trkpt>
      <trkpt lat="44.86626" lon="5.69642">
        <ele>617.7841797</ele>
        <time>2021-07-05T09:31:26Z</time>
      </trkpt>
      <trkpt lat="44.86627" lon="5.69621">
        <ele>619.2263184</ele>
        <time>2021-07-05T09:31:44Z</time>
      </trkpt>
      <trkpt lat="44.8662" lon="5.6961">
        <ele>622.1103516</ele>
        <time>2021-07-05T09:31:57Z</time>
      </trkpt>
      <trkpt lat="44.86608" lon="5.69588">
        <ele>624.032959</ele>
        <time>2021-07-05T09:32:10Z</time>
      </trkpt>
      <trkpt lat="44.86609" lon="5.69586">
        <ele>624.5136719</ele>
        <time>2021-07-05T09:32:12Z</time>
      </trkpt>
      <trkpt lat="44.86615" lon="5.69566">
        <ele>626.4362793</ele>
        <time>2021-07-05T09:32:28Z</time>
      </trkpt>
      <trkpt lat="44.8662" lon="5.69547">
        <ele>627.3977051</ele>
        <time>2021-07-05T09:32:42Z</time>
      </trkpt>
      <trkpt lat="44.86627" lon="5.69518">
        <ele>628.8395996</ele>
        <time>2021-07-05T09:33:00Z</time>
      </trkpt>
      <trkpt lat="44.8663" lon="5.69496">
        <ele>629.8007813</ele>
        <time>2021-07-05T09:33:14Z</time>
      </trkpt>
      <trkpt lat="44.86629" lon="5.69479">
        <ele>630.762207</ele>
        <time>2021-07-05T09:33:30Z</time>
      </trkpt>
      <trkpt lat="44.86627" lon="5.69483">
        <ele>630.762207</ele>
        <time>2021-07-05T09:34:07Z</time>
      </trkpt>
      <trkpt lat="44.86624" lon="5.6948">
        <ele>630.2814941</ele>
        <time>2021-07-05T09:34:29Z</time>
      </trkpt>
      <trkpt lat="44.86624" lon="5.69484">
        <ele>631.2429199</ele>
        <time>2021-07-05T09:34:40Z</time>
      </trkpt>
      <trkpt lat="44.86624" lon="5.69482">
        <ele>630.762207</ele>
        <time>2021-07-05T09:35:04Z</time>
      </trkpt>
      <trkpt lat="44.86626" lon="5.69479">
        <ele>630.762207</ele>
        <time>2021-07-05T09:35:34Z</time>
      </trkpt>
      <trkpt lat="44.86633" lon="5.69473">
        <ele>630.2814941</ele>
        <time>2021-07-05T09:35:53Z</time>
      </trkpt>
      <trkpt lat="44.86637" lon="5.69468">
        <ele>629.8007813</ele>
        <time>2021-07-05T09:36:43Z</time>
      </trkpt>
      <trkpt lat="44.86639" lon="5.69468">
        <ele>629.3200684</ele>
        <time>2021-07-05T09:37:21Z</time>
      </trkpt>
      <trkpt lat="44.86654" lon="5.69468">
        <ele>629.3200684</ele>
        <time>2021-07-05T09:38:51Z</time>
      </trkpt>
      <trkpt lat="44.86639" lon="5.69483">
        <ele>630.2814941</ele>
        <time>2021-07-05T09:39:53Z</time>
      </trkpt>
      <trkpt lat="44.86613" lon="5.69509">
        <ele>631.7233887</ele>
        <time>2021-07-05T09:40:12Z</time>
      </trkpt>
      <trkpt lat="44.86591" lon="5.69533">
        <ele>632.6848145</ele>
        <time>2021-07-05T09:40:36Z</time>
      </trkpt>
      <trkpt lat="44.8657" lon="5.69531">
        <ele>632.6848145</ele>
        <time>2021-07-05T09:40:54Z</time>
      </trkpt>
      <trkpt lat="44.8656" lon="5.69527">
        <ele>634.126709</ele>
        <time>2021-07-05T09:41:03Z</time>
      </trkpt>
      <trkpt lat="44.86545" lon="5.69523">
        <ele>635.0881348</ele>
        <time>2021-07-05T09:41:14Z</time>
      </trkpt>
      <trkpt lat="44.86533" lon="5.69511">
        <ele>637.0107422</ele>
        <time>2021-07-05T09:41:27Z</time>
      </trkpt>
      <trkpt lat="44.86521" lon="5.69501">
        <ele>639.8947754</ele>
        <time>2021-07-05T09:41:40Z</time>
      </trkpt>
      <trkpt lat="44.86508" lon="5.69487">
        <ele>642.2980957</ele>
        <time>2021-07-05T09:41:52Z</time>
      </trkpt>
      <trkpt lat="44.86499" lon="5.6948">
        <ele>644.2207031</ele>
        <time>2021-07-05T09:42:04Z</time>
      </trkpt>
      <trkpt lat="44.86487" lon="5.69464">
        <ele>646.1433105</ele>
        <time>2021-07-05T09:42:18Z</time>
      </trkpt>
      <trkpt lat="44.86476" lon="5.69452">
        <ele>649.5078125</ele>
        <time>2021-07-05T09:42:31Z</time>
      </trkpt>
      <trkpt lat="44.86465" lon="5.69442">
        <ele>650.949707</ele>
        <time>2021-07-05T09:42:41Z</time>
      </trkpt>
      <trkpt lat="44.86463" lon="5.69439">
        <ele>651.4304199</ele>
        <time>2021-07-05T09:42:43Z</time>
      </trkpt>
      <trkpt lat="44.86451" lon="5.69428">
        <ele>654.3146973</ele>
        <time>2021-07-05T09:42:59Z</time>
      </trkpt>
      <trkpt lat="44.86434" lon="5.69418">
        <ele>657.6791992</ele>
        <time>2021-07-05T09:43:15Z</time>
      </trkpt>
      <trkpt lat="44.86418" lon="5.69416">
        <ele>660.5629883</ele>
        <time>2021-07-05T09:43:31Z</time>
      </trkpt>
      <trkpt lat="44.86402" lon="5.69416">
        <ele>663.9274902</ele>
        <time>2021-07-05T09:43:47Z</time>
      </trkpt>
      <trkpt lat="44.86401" lon="5.69416">
        <ele>663.9274902</ele>
        <time>2021-07-05T09:43:48Z</time>
      </trkpt>
      <trkpt lat="44.8638" lon="5.69416">
        <ele>666.3308105</ele>
        <time>2021-07-05T09:44:02Z</time>
      </trkpt>
      <trkpt lat="44.86364" lon="5.69398">
        <ele>668.734375</ele>
        <time>2021-07-05T09:44:19Z</time>
      </trkpt>
      <trkpt lat="44.8635" lon="5.69374">
        <ele>672.5795898</ele>
        <time>2021-07-05T09:44:35Z</time>
      </trkpt>
      <trkpt lat="44.86347" lon="5.69344">
        <ele>674.5021973</ele>
        <time>2021-07-05T09:44:52Z</time>
      </trkpt>
      <trkpt lat="44.86348" lon="5.69336">
        <ele>674.0214844</ele>
        <time>2021-07-05T09:44:57Z</time>
      </trkpt>
      <trkpt lat="44.86352" lon="5.69322">
        <ele>674.5021973</ele>
        <time>2021-07-05T09:45:08Z</time>
      </trkpt>
      <trkpt lat="44.86353" lon="5.69305">
        <ele>674.0214844</ele>
        <time>2021-07-05T09:45:26Z</time>
      </trkpt>
      <trkpt lat="44.8636" lon="5.69287">
        <ele>672.5795898</ele>
        <time>2021-07-05T09:45:43Z</time>
      </trkpt>
      <trkpt lat="44.86367" lon="5.69275">
        <ele>671.6181641</ele>
        <time>2021-07-05T09:45:58Z</time>
      </trkpt>
      <trkpt lat="44.86374" lon="5.69262">
        <ele>670.1762695</ele>
        <time>2021-07-05T09:46:14Z</time>
      </trkpt>
      <trkpt lat="44.86383" lon="5.69249">
        <ele>669.2150879</ele>
        <time>2021-07-05T09:46:28Z</time>
      </trkpt>
      <trkpt lat="44.86393" lon="5.6924">
        <ele>668.734375</ele>
        <time>2021-07-05T09:46:44Z</time>
      </trkpt>
      <trkpt lat="44.86409" lon="5.69229">
        <ele>666.8115234</ele>
        <time>2021-07-05T09:47:03Z</time>
      </trkpt>
      <trkpt lat="44.86421" lon="5.69213">
        <ele>665.3696289</ele>
        <time>2021-07-05T09:47:24Z</time>
      </trkpt>
      <trkpt lat="44.8644" lon="5.69193">
        <ele>662.9663086</ele>
        <time>2021-07-05T09:47:49Z</time>
      </trkpt>
      <trkpt lat="44.86466" lon="5.69172">
        <ele>661.5244141</ele>
        <time>2021-07-05T09:48:15Z</time>
      </trkpt>
      <trkpt lat="44.86492" lon="5.69154">
        <ele>659.1210938</ele>
        <time>2021-07-05T09:48:45Z</time>
      </trkpt>
      <trkpt lat="44.86505" lon="5.69133">
        <ele>657.6791992</ele>
        <time>2021-07-05T09:49:05Z</time>
      </trkpt>
      <trkpt lat="44.86518" lon="5.69111">
        <ele>657.6791992</ele>
        <time>2021-07-05T09:49:26Z</time>
      </trkpt>
      <trkpt lat="44.86527" lon="5.69091">
        <ele>657.6791992</ele>
        <time>2021-07-05T09:49:43Z</time>
      </trkpt>
      <trkpt lat="44.86535" lon="5.69075">
        <ele>657.1984863</ele>
        <time>2021-07-05T09:50:04Z</time>
      </trkpt>
      <trkpt lat="44.86535" lon="5.69074">
        <ele>657.1984863</ele>
        <time>2021-07-05T09:50:36Z</time>
      </trkpt>
      <trkpt lat="44.86538" lon="5.69067">
        <ele>657.1984863</ele>
        <time>2021-07-05T09:52:08Z</time>
      </trkpt>
      <trkpt lat="44.86533" lon="5.69055">
        <ele>660.5629883</ele>
        <time>2021-07-05T09:52:21Z</time>
      </trkpt>
      <trkpt lat="44.86522" lon="5.69046">
        <ele>661.0437012</ele>
        <time>2021-07-05T09:52:34Z</time>
      </trkpt>
      <trkpt lat="44.86504" lon="5.69037">
        <ele>662.4855957</ele>
        <time>2021-07-05T09:52:51Z</time>
      </trkpt>
      <trkpt lat="44.86481" lon="5.69022">
        <ele>663.4470215</ele>
        <time>2021-07-05T09:53:07Z</time>
      </trkpt>
      <trkpt lat="44.8647" lon="5.69008">
        <ele>664.888916</ele>
        <time>2021-07-05T09:53:18Z</time>
      </trkpt>
      <trkpt lat="44.86452" lon="5.68992">
        <ele>668.2536621</ele>
        <time>2021-07-05T09:53:35Z</time>
      </trkpt>
      <trkpt lat="44.86438" lon="5.68972">
        <ele>671.1376953</ele>
        <time>2021-07-05T09:53:53Z</time>
      </trkpt>
      <trkpt lat="44.86426" lon="5.68954">
        <ele>674.5021973</ele>
        <time>2021-07-05T09:54:10Z</time>
      </trkpt>
      <trkpt lat="44.86422" lon="5.68948">
        <ele>676.4248047</ele>
        <time>2021-07-05T09:54:16Z</time>
      </trkpt>
      <trkpt lat="44.86416" lon="5.68936">
        <ele>679.3085938</ele>
        <time>2021-07-05T09:54:26Z</time>
      </trkpt>
      <trkpt lat="44.86415" lon="5.68932">
        <ele>680.2700195</ele>
        <time>2021-07-05T09:54:30Z</time>
      </trkpt>
      <trkpt lat="44.86412" lon="5.68925">
        <ele>681.7119141</ele>
        <time>2021-07-05T09:54:36Z</time>
      </trkpt>
      <trkpt lat="44.86404" lon="5.68919">
        <ele>684.1154785</ele>
        <time>2021-07-05T09:54:45Z</time>
      </trkpt>
      <trkpt lat="44.86399" lon="5.68914">
        <ele>686.0380859</ele>
        <time>2021-07-05T09:54:53Z</time>
      </trkpt>
      <trkpt lat="44.86396" lon="5.68913">
        <ele>687.9606934</ele>
        <time>2021-07-05T09:55:00Z</time>
      </trkpt>
      <trkpt lat="44.86389" lon="5.68908">
        <ele>691.3251953</ele>
        <time>2021-07-05T09:55:12Z</time>
      </trkpt>
      <trkpt lat="44.86384" lon="5.689">
        <ele>694.2092285</ele>
        <time>2021-07-05T09:55:24Z</time>
      </trkpt>
      <trkpt lat="44.86369" lon="5.68897">
        <ele>697.0930176</ele>
        <time>2021-07-05T09:55:41Z</time>
      </trkpt>
      <trkpt lat="44.86368" lon="5.68899">
        <ele>697.0930176</ele>
        <time>2021-07-05T09:55:43Z</time>
      </trkpt>
      <trkpt lat="44.86356" lon="5.68893">
        <ele>698.5349121</ele>
        <time>2021-07-05T09:56:00Z</time>
      </trkpt>
      <trkpt lat="44.86355" lon="5.68893">
        <ele>698.0544434</ele>
        <time>2021-07-05T09:56:07Z</time>
      </trkpt>
      <trkpt lat="44.86351" lon="5.68896">
        <ele>698.0544434</ele>
        <time>2021-07-05T09:56:21Z</time>
      </trkpt>
      <trkpt lat="44.86355" lon="5.68893">
        <ele>698.5349121</ele>
        <time>2021-07-05T09:56:54Z</time>
      </trkpt>
      <trkpt lat="44.86356" lon="5.68891">
        <ele>698.0544434</ele>
        <time>2021-07-05T09:57:20Z</time>
      </trkpt>
      <trkpt lat="44.86356" lon="5.68889">
        <ele>698.0544434</ele>
        <time>2021-07-05T09:57:38Z</time>
      </trkpt>
      <trkpt lat="44.86356" lon="5.68889">
        <ele>698.0544434</ele>
        <time>2021-07-05T09:58:48Z</time>
      </trkpt>
      <trkpt lat="44.86358" lon="5.68894">
        <ele>698.0544434</ele>
        <time>2021-07-05T10:00:01Z</time>
      </trkpt>
      <trkpt lat="44.86345" lon="5.68904">
        <ele>699.015625</ele>
        <time>2021-07-05T10:00:15Z</time>
      </trkpt>
      <trkpt lat="44.86327" lon="5.68917">
        <ele>700.4580078</ele>
        <time>2021-07-05T10:00:33Z</time>
      </trkpt>
      <trkpt lat="44.86304" lon="5.68933">
        <ele>702.3803711</ele>
        <time>2021-07-05T10:00:55Z</time>
      </trkpt>
      <trkpt lat="44.86294" lon="5.68933">
        <ele>703.3417969</ele>
        <time>2021-07-05T10:01:08Z</time>
      </trkpt>
      <trkpt lat="44.86283" lon="5.68934">
        <ele>702.861084</ele>
        <time>2021-07-05T10:01:22Z</time>
      </trkpt>
      <trkpt lat="44.86282" lon="5.68933">
        <ele>702.861084</ele>
        <time>2021-07-05T10:01:24Z</time>
      </trkpt>
      <trkpt lat="44.86267" lon="5.68933">
        <ele>702.861084</ele>
        <time>2021-07-05T10:01:37Z</time>
      </trkpt>
      <trkpt lat="44.86256" lon="5.68933">
        <ele>701.8999023</ele>
        <time>2021-07-05T10:01:45Z</time>
      </trkpt>
      <trkpt lat="44.86253" lon="5.6893">
        <ele>700.9384766</ele>
        <time>2021-07-05T10:01:49Z</time>
      </trkpt>
      <trkpt lat="44.86247" lon="5.68929">
        <ele>699.9770508</ele>
        <time>2021-07-05T10:01:55Z</time>
      </trkpt>
      <trkpt lat="44.86247" lon="5.68928">
        <ele>699.015625</ele>
        <time>2021-07-05T10:01:59Z</time>
      </trkpt>
      <trkpt lat="44.86253" lon="5.68923">
        <ele>696.1318359</ele>
        <time>2021-07-05T10:02:12Z</time>
      </trkpt>
      <trkpt lat="44.86253" lon="5.68922">
        <ele>696.1318359</ele>
        <time>2021-07-05T10:02:13Z</time>
      </trkpt>
      <trkpt lat="44.86257" lon="5.68909">
        <ele>693.7285156</ele>
        <time>2021-07-05T10:02:33Z</time>
      </trkpt>
      <trkpt lat="44.86246" lon="5.68888">
        <ele>691.3251953</ele>
        <time>2021-07-05T10:02:53Z</time>
      </trkpt>
      <trkpt lat="44.86252" lon="5.68883">
        <ele>691.3251953</ele>
        <time>2021-07-05T10:03:06Z</time>
      </trkpt>
      <trkpt lat="44.86263" lon="5.68885">
        <ele>688.9221191</ele>
        <time>2021-07-05T10:03:22Z</time>
      </trkpt>
      <trkpt lat="44.86274" lon="5.68882">
        <ele>686.5187988</ele>
        <time>2021-07-05T10:03:41Z</time>
      </trkpt>
      <trkpt lat="44.86278" lon="5.68876">
        <ele>686.0380859</ele>
        <time>2021-07-05T10:03:47Z</time>
      </trkpt>
      <trkpt lat="44.86297" lon="5.68875">
        <ele>685.0769043</ele>
        <time>2021-07-05T10:04:05Z</time>
      </trkpt>
      <trkpt lat="44.86317" lon="5.68862">
        <ele>682.192627</ele>
        <time>2021-07-05T10:04:25Z</time>
      </trkpt>
      <trkpt lat="44.86334" lon="5.68849">
        <ele>680.7507324</ele>
        <time>2021-07-05T10:04:45Z</time>
      </trkpt>
      <trkpt lat="44.86349" lon="5.68826">
        <ele>679.7893066</ele>
        <time>2021-07-05T10:05:07Z</time>
      </trkpt>
      <trkpt lat="44.8636" lon="5.68802">
        <ele>679.3085938</ele>
        <time>2021-07-05T10:05:30Z</time>
      </trkpt>
      <trkpt lat="44.86376" lon="5.68782">
        <ele>678.828125</ele>
        <time>2021-07-05T10:05:50Z</time>
      </trkpt>
      <trkpt lat="44.86386" lon="5.68775">
        <ele>676.4248047</ele>
        <time>2021-07-05T10:06:02Z</time>
      </trkpt>
      <trkpt lat="44.86395" lon="5.68762">
        <ele>676.4248047</ele>
        <time>2021-07-05T10:06:17Z</time>
      </trkpt>
      <trkpt lat="44.86407" lon="5.68753">
        <ele>674.0214844</ele>
        <time>2021-07-05T10:06:33Z</time>
      </trkpt>
      <trkpt lat="44.86415" lon="5.6874">
        <ele>671.6181641</ele>
        <time>2021-07-05T10:06:49Z</time>
      </trkpt>
      <trkpt lat="44.86426" lon="5.68718">
        <ele>669.2150879</ele>
        <time>2021-07-05T10:07:11Z</time>
      </trkpt>
      <trkpt lat="44.86434" lon="5.68701">
        <ele>667.7727051</ele>
        <time>2021-07-05T10:07:25Z</time>
      </trkpt>
      <trkpt lat="44.86444" lon="5.68683">
        <ele>666.8115234</ele>
        <time>2021-07-05T10:07:42Z</time>
      </trkpt>
      <trkpt lat="44.86446" lon="5.68666">
        <ele>664.4082031</ele>
        <time>2021-07-05T10:07:56Z</time>
      </trkpt>
      <trkpt lat="44.86449" lon="5.68652">
        <ele>662.4855957</ele>
        <time>2021-07-05T10:08:05Z</time>
      </trkpt>
      <trkpt lat="44.86453" lon="5.6863">
        <ele>661.5244141</ele>
        <time>2021-07-05T10:08:21Z</time>
      </trkpt>
      <trkpt lat="44.86453" lon="5.68603">
        <ele>658.6403809</ele>
        <time>2021-07-05T10:08:41Z</time>
      </trkpt>
      <trkpt lat="44.8645" lon="5.68584">
        <ele>656.7177734</ele>
        <time>2021-07-05T10:08:58Z</time>
      </trkpt>
      <trkpt lat="44.86454" lon="5.68567">
        <ele>654.795166</ele>
        <time>2021-07-05T10:09:13Z</time>
      </trkpt>
      <trkpt lat="44.86455" lon="5.68546">
        <ele>652.3918457</ele>
        <time>2021-07-05T10:09:29Z</time>
      </trkpt>
      <trkpt lat="44.86465" lon="5.68533">
        <ele>653.8339844</ele>
        <time>2021-07-05T10:09:43Z</time>
      </trkpt>
      <trkpt lat="44.8647" lon="5.68521">
        <ele>653.3532715</ele>
        <time>2021-07-05T10:09:51Z</time>
      </trkpt>
      <trkpt lat="44.86472" lon="5.68519">
        <ele>653.3532715</ele>
        <time>2021-07-05T10:09:53Z</time>
      </trkpt>
      <trkpt lat="44.86481" lon="5.6851">
        <ele>653.8339844</ele>
        <time>2021-07-05T10:10:06Z</time>
      </trkpt>
      <trkpt lat="44.86491" lon="5.68482">
        <ele>654.3146973</ele>
        <time>2021-07-05T10:10:25Z</time>
      </trkpt>
      <trkpt lat="44.86501" lon="5.68464">
        <ele>656.2370605</ele>
        <time>2021-07-05T10:10:42Z</time>
      </trkpt>
      <trkpt lat="44.86509" lon="5.68442">
        <ele>657.1984863</ele>
        <time>2021-07-05T10:10:58Z</time>
      </trkpt>
      <trkpt lat="44.86515" lon="5.68435">
        <ele>657.1984863</ele>
        <time>2021-07-05T10:11:01Z</time>
      </trkpt>
      <trkpt lat="44.86518" lon="5.6843">
        <ele>657.6791992</ele>
        <time>2021-07-05T10:11:06Z</time>
      </trkpt>
      <trkpt lat="44.86524" lon="5.68412">
        <ele>659.1210938</ele>
        <time>2021-07-05T10:11:19Z</time>
      </trkpt>
      <trkpt lat="44.86526" lon="5.68409">
        <ele>659.6018066</ele>
        <time>2021-07-05T10:11:21Z</time>
      </trkpt>
      <trkpt lat="44.86537" lon="5.68402">
        <ele>661.0437012</ele>
        <time>2021-07-05T10:11:38Z</time>
      </trkpt>
      <trkpt lat="44.86553" lon="5.68386">
        <ele>660.0822754</ele>
        <time>2021-07-05T10:12:01Z</time>
      </trkpt>
      <trkpt lat="44.86565" lon="5.68364">
        <ele>657.6791992</ele>
        <time>2021-07-05T10:12:20Z</time>
      </trkpt>
      <trkpt lat="44.86569" lon="5.68345">
        <ele>656.2370605</ele>
        <time>2021-07-05T10:12:37Z</time>
      </trkpt>
      <trkpt lat="44.8658" lon="5.6833">
        <ele>655.7565918</ele>
        <time>2021-07-05T10:12:52Z</time>
      </trkpt>
      <trkpt lat="44.86605" lon="5.68319">
        <ele>655.7565918</ele>
        <time>2021-07-05T10:13:14Z</time>
      </trkpt>
      <trkpt lat="44.86617" lon="5.68313">
        <ele>655.2758789</ele>
        <time>2021-07-05T10:13:30Z</time>
      </trkpt>
      <trkpt lat="44.86632" lon="5.68282">
        <ele>656.7177734</ele>
        <time>2021-07-05T10:13:49Z</time>
      </trkpt>
      <trkpt lat="44.8664" lon="5.68278">
        <ele>656.2370605</ele>
        <time>2021-07-05T10:14:04Z</time>
      </trkpt>
      <trkpt lat="44.86651" lon="5.6826">
        <ele>657.6791992</ele>
        <time>2021-07-05T10:14:20Z</time>
      </trkpt>
      <trkpt lat="44.86665" lon="5.68245">
        <ele>660.0822754</ele>
        <time>2021-07-05T10:14:35Z</time>
      </trkpt>
      <trkpt lat="44.86672" lon="5.68241">
        <ele>660.0822754</ele>
        <time>2021-07-05T10:14:50Z</time>
      </trkpt>
      <trkpt lat="44.86673" lon="5.68243">
        <ele>661.0437012</ele>
        <time>2021-07-05T10:15:09Z</time>
      </trkpt>
      <trkpt lat="44.8668" lon="5.68237">
        <ele>659.6018066</ele>
        <time>2021-07-05T10:15:33Z</time>
      </trkpt>
      <trkpt lat="44.86678" lon="5.68227">
        <ele>659.6018066</ele>
        <time>2021-07-05T10:16:06Z</time>
      </trkpt>
      <trkpt lat="44.86674" lon="5.68222">
        <ele>660.0822754</ele>
        <time>2021-07-05T10:16:42Z</time>
      </trkpt>
      <trkpt lat="44.86679" lon="5.68215">
        <ele>657.1984863</ele>
        <time>2021-07-05T10:17:19Z</time>
      </trkpt>
      <trkpt lat="44.86687" lon="5.68203">
        <ele>655.7565918</ele>
        <time>2021-07-05T10:17:31Z</time>
      </trkpt>
      <trkpt lat="44.86692" lon="5.6818">
        <ele>653.8339844</ele>
        <time>2021-07-05T10:17:45Z</time>
      </trkpt>
      <trkpt lat="44.86691" lon="5.68163">
        <ele>652.3918457</ele>
        <time>2021-07-05T10:17:58Z</time>
      </trkpt>
      <trkpt lat="44.86696" lon="5.68154">
        <ele>651.4304199</ele>
        <time>2021-07-05T10:18:11Z</time>
      </trkpt>
      <trkpt lat="44.86698" lon="5.68153">
        <ele>650.949707</ele>
        <time>2021-07-05T10:18:55Z</time>
      </trkpt>
      <trkpt lat="44.86703" lon="5.68145">
        <ele>651.4304199</ele>
        <time>2021-07-05T10:19:52Z</time>
      </trkpt>
      <trkpt lat="44.86701" lon="5.6814">
        <ele>653.3532715</ele>
        <time>2021-07-05T10:23:00Z</time>
      </trkpt>
      <trkpt lat="44.86701" lon="5.68144">
        <ele>652.8725586</ele>
        <time>2021-07-05T10:23:11Z</time>
      </trkpt>
      <trkpt lat="44.86705" lon="5.68147">
        <ele>651.4304199</ele>
        <time>2021-07-05T10:23:39Z</time>
      </trkpt>
      <trkpt lat="44.86706" lon="5.68148">
        <ele>650.949707</ele>
        <time>2021-07-05T10:23:57Z</time>
      </trkpt>
      <trkpt lat="44.86704" lon="5.68152">
        <ele>654.3146973</ele>
        <time>2021-07-05T10:36:04Z</time>
      </trkpt>
      <trkpt lat="44.86702" lon="5.68151">
        <ele>650.949707</ele>
        <time>2021-07-05T11:01:44Z</time>
      </trkpt>
      <trkpt lat="44.86702" lon="5.68151">
        <ele>649.0270996</ele>
        <time>2021-07-05T11:17:11Z</time>
      </trkpt>
      <trkpt lat="44.867" lon="5.68147">
        <ele>650.4692383</ele>
        <time>2021-07-05T11:17:26Z</time>
      </trkpt>
      <trkpt lat="44.86691" lon="5.68154">
        <ele>649.9885254</ele>
        <time>2021-07-05T11:17:53Z</time>
      </trkpt>
      <trkpt lat="44.86695" lon="5.68148">
        <ele>649.5078125</ele>
        <time>2021-07-05T11:18:39Z</time>
      </trkpt>
      <trkpt lat="44.86702" lon="5.68143">
        <ele>648.065918</ele>
        <time>2021-07-05T11:18:55Z</time>
      </trkpt>
      <trkpt lat="44.8671" lon="5.68131">
        <ele>645.6625977</ele>
        <time>2021-07-05T11:19:12Z</time>
      </trkpt>
      <trkpt lat="44.86718" lon="5.68121">
        <ele>643.2592773</ele>
        <time>2021-07-05T11:19:29Z</time>
      </trkpt>
      <trkpt lat="44.8672" lon="5.68113">
        <ele>641.8173828</ele>
        <time>2021-07-05T11:19:37Z</time>
      </trkpt>
      <trkpt lat="44.86721" lon="5.68108">
        <ele>640.855957</ele>
        <time>2021-07-05T11:19:49Z</time>
      </trkpt>
      <trkpt lat="44.86726" lon="5.68089">
        <ele>637.0107422</ele>
        <time>2021-07-05T11:20:07Z</time>
      </trkpt>
      <trkpt lat="44.86731" lon="5.68074">
        <ele>634.6074219</ele>
        <time>2021-07-05T11:20:23Z</time>
      </trkpt>
      <trkpt lat="44.86737" lon="5.68054">
        <ele>634.126709</ele>
        <time>2021-07-05T11:20:37Z</time>
      </trkpt>
      <trkpt lat="44.86742" lon="5.68042">
        <ele>633.6459961</ele>
        <time>2021-07-05T11:20:50Z</time>
      </trkpt>
      <trkpt lat="44.86759" lon="5.68019">
        <ele>633.6459961</ele>
        <time>2021-07-05T11:21:10Z</time>
      </trkpt>
      <trkpt lat="44.86778" lon="5.67995">
        <ele>633.1652832</ele>
        <time>2021-07-05T11:21:29Z</time>
      </trkpt>
      <trkpt lat="44.86789" lon="5.67973">
        <ele>632.6848145</ele>
        <time>2021-07-05T11:21:45Z</time>
      </trkpt>
      <trkpt lat="44.86799" lon="5.67947">
        <ele>632.2041016</ele>
        <time>2021-07-05T11:22:03Z</time>
      </trkpt>
      <trkpt lat="44.86811" lon="5.67934">
        <ele>630.2814941</ele>
        <time>2021-07-05T11:22:18Z</time>
      </trkpt>
      <trkpt lat="44.8682" lon="5.67912">
        <ele>629.8007813</ele>
        <time>2021-07-05T11:22:31Z</time>
      </trkpt>
      <trkpt lat="44.86827" lon="5.67901">
        <ele>629.3200684</ele>
        <time>2021-07-05T11:22:44Z</time>
      </trkpt>
      <trkpt lat="44.86844" lon="5.67866">
        <ele>627.8781738</ele>
        <time>2021-07-05T11:23:03Z</time>
      </trkpt>
      <trkpt lat="44.86857" lon="5.67847">
        <ele>626.9169922</ele>
        <time>2021-07-05T11:23:14Z</time>
      </trkpt>
      <trkpt lat="44.86857" lon="5.67846">
        <ele>626.9169922</ele>
        <time>2021-07-05T11:23:15Z</time>
      </trkpt>
      <trkpt lat="44.86867" lon="5.67828">
        <ele>625.9555664</ele>
        <time>2021-07-05T11:23:27Z</time>
      </trkpt>
      <trkpt lat="44.86867" lon="5.67826">
        <ele>625.4748535</ele>
        <time>2021-07-05T11:23:29Z</time>
      </trkpt>
      <trkpt lat="44.86872" lon="5.67808">
        <ele>624.032959</ele>
        <time>2021-07-05T11:23:43Z</time>
      </trkpt>
      <trkpt lat="44.86871" lon="5.67804">
        <ele>623.0717773</ele>
        <time>2021-07-05T11:23:48Z</time>
      </trkpt>
      <trkpt lat="44.86876" lon="5.678">
        <ele>621.6296387</ele>
        <time>2021-07-05T11:23:54Z</time>
      </trkpt>
      <trkpt lat="44.86883" lon="5.67783">
        <ele>621.1491699</ele>
        <time>2021-07-05T11:24:07Z</time>
      </trkpt>
      <trkpt lat="44.8689" lon="5.67769">
        <ele>620.1877441</ele>
        <time>2021-07-05T11:24:12Z</time>
      </trkpt>
      <trkpt lat="44.86895" lon="5.67751">
        <ele>618.7456055</ele>
        <time>2021-07-05T11:24:22Z</time>
      </trkpt>
      <trkpt lat="44.86903" lon="5.67738">
        <ele>615.8618164</ele>
        <time>2021-07-05T11:24:39Z</time>
      </trkpt>
      <trkpt lat="44.86908" lon="5.67723">
        <ele>614.9003906</ele>
        <time>2021-07-05T11:24:51Z</time>
      </trkpt>
      <trkpt lat="44.86913" lon="5.67711">
        <ele>613.9389648</ele>
        <time>2021-07-05T11:25:05Z</time>
      </trkpt>
      <trkpt lat="44.86915" lon="5.67709">
        <ele>613.9389648</ele>
        <time>2021-07-05T11:25:06Z</time>
      </trkpt>
      <trkpt lat="44.86917" lon="5.67702">
        <ele>613.4584961</ele>
        <time>2021-07-05T11:25:12Z</time>
      </trkpt>
      <trkpt lat="44.86928" lon="5.67682">
        <ele>612.9777832</ele>
        <time>2021-07-05T11:25:26Z</time>
      </trkpt>
      <trkpt lat="44.86937" lon="5.67668">
        <ele>612.9777832</ele>
        <time>2021-07-05T11:25:38Z</time>
      </trkpt>
      <trkpt lat="44.86943" lon="5.67644">
        <ele>612.9777832</ele>
        <time>2021-07-05T11:25:54Z</time>
      </trkpt>
      <trkpt lat="44.86954" lon="5.67631">
        <ele>613.9389648</ele>
        <time>2021-07-05T11:26:07Z</time>
      </trkpt>
      <trkpt lat="44.86957" lon="5.67628">
        <ele>613.4584961</ele>
        <time>2021-07-05T11:26:10Z</time>
      </trkpt>
      <trkpt lat="44.86962" lon="5.67608">
        <ele>611.5358887</ele>
        <time>2021-07-05T11:26:22Z</time>
      </trkpt>
      <trkpt lat="44.86964" lon="5.67594">
        <ele>611.0551758</ele>
        <time>2021-07-05T11:26:32Z</time>
      </trkpt>
      <trkpt lat="44.86962" lon="5.67579">
        <ele>611.5358887</ele>
        <time>2021-07-05T11:26:43Z</time>
      </trkpt>
      <trkpt lat="44.86964" lon="5.67555">
        <ele>612.0166016</ele>
        <time>2021-07-05T11:27:02Z</time>
      </trkpt>
      <trkpt lat="44.86962" lon="5.67542">
        <ele>611.5358887</ele>
        <time>2021-07-05T11:27:18Z</time>
      </trkpt>
      <trkpt lat="44.86963" lon="5.67542">
        <ele>612.0166016</ele>
        <time>2021-07-05T11:27:19Z</time>
      </trkpt>
      <trkpt lat="44.86969" lon="5.67527">
        <ele>609.6132813</ele>
        <time>2021-07-05T11:27:34Z</time>
      </trkpt>
      <trkpt lat="44.86977" lon="5.67517">
        <ele>608.6518555</ele>
        <time>2021-07-05T11:27:41Z</time>
      </trkpt>
      <trkpt lat="44.86994" lon="5.67498">
        <ele>604.8066406</ele>
        <time>2021-07-05T11:27:59Z</time>
      </trkpt>
      <trkpt lat="44.87" lon="5.67487">
        <ele>603.8452148</ele>
        <time>2021-07-05T11:28:09Z</time>
      </trkpt>
      <trkpt lat="44.87002" lon="5.67483">
        <ele>603.364502</ele>
        <time>2021-07-05T11:28:13Z</time>
      </trkpt>
      <trkpt lat="44.87007" lon="5.67472">
        <ele>602.4030762</ele>
        <time>2021-07-05T11:28:23Z</time>
      </trkpt>
      <trkpt lat="44.87019" lon="5.67445">
        <ele>602.4030762</ele>
        <time>2021-07-05T11:28:39Z</time>
      </trkpt>
      <trkpt lat="44.87025" lon="5.67415">
        <ele>600.9611816</ele>
        <time>2021-07-05T11:28:55Z</time>
      </trkpt>
      <trkpt lat="44.87027" lon="5.67401">
        <ele>601.9226074</ele>
        <time>2021-07-05T11:29:10Z</time>
      </trkpt>
      <trkpt lat="44.87027" lon="5.67395">
        <ele>601.9226074</ele>
        <time>2021-07-05T11:29:31Z</time>
      </trkpt>
      <trkpt lat="44.8703" lon="5.67411">
        <ele>599.5192871</ele>
        <time>2021-07-05T11:29:54Z</time>
      </trkpt>
      <trkpt lat="44.87035" lon="5.67415">
        <ele>598.5578613</ele>
        <time>2021-07-05T11:29:59Z</time>
      </trkpt>
      <trkpt lat="44.87047" lon="5.67425">
        <ele>595.6740723</ele>
        <time>2021-07-05T11:30:18Z</time>
      </trkpt>
      <trkpt lat="44.87044" lon="5.67429">
        <ele>594.2321777</ele>
        <time>2021-07-05T11:30:23Z</time>
      </trkpt>
      <trkpt lat="44.87028" lon="5.67452">
        <ele>591.8288574</ele>
        <time>2021-07-05T11:30:46Z</time>
      </trkpt>
      <trkpt lat="44.87028" lon="5.67478">
        <ele>589.4255371</ele>
        <time>2021-07-05T11:31:04Z</time>
      </trkpt>
      <trkpt lat="44.87031" lon="5.67506">
        <ele>587.0219727</ele>
        <time>2021-07-05T11:31:20Z</time>
      </trkpt>
      <trkpt lat="44.87036" lon="5.6752">
        <ele>586.5415039</ele>
        <time>2021-07-05T11:31:34Z</time>
      </trkpt>
      <trkpt lat="44.87039" lon="5.67526">
        <ele>586.060791</ele>
        <time>2021-07-05T11:31:36Z</time>
      </trkpt>
      <trkpt lat="44.87041" lon="5.67531">
        <ele>586.060791</ele>
        <time>2021-07-05T11:31:40Z</time>
      </trkpt>
      <trkpt lat="44.87042" lon="5.67544">
        <ele>583.1767578</ele>
        <time>2021-07-05T11:31:59Z</time>
      </trkpt>
      <trkpt lat="44.8704" lon="5.67568">
        <ele>580.2929688</ele>
        <time>2021-07-05T11:32:23Z</time>
      </trkpt>
      <trkpt lat="44.87045" lon="5.67588">
        <ele>580.7736816</ele>
        <time>2021-07-05T11:32:36Z</time>
      </trkpt>
      <trkpt lat="44.87051" lon="5.67592">
        <ele>578.3703613</ele>
        <time>2021-07-05T11:32:50Z</time>
      </trkpt>
      <trkpt lat="44.87052" lon="5.6759">
        <ele>577.4091797</ele>
        <time>2021-07-05T11:32:52Z</time>
      </trkpt>
      <trkpt lat="44.87055" lon="5.67584">
        <ele>576.9284668</ele>
        <time>2021-07-05T11:32:56Z</time>
      </trkpt>
      <trkpt lat="44.8706" lon="5.67586">
        <ele>576.4477539</ele>
        <time>2021-07-05T11:32:59Z</time>
      </trkpt>
      <trkpt lat="44.87067" lon="5.67593">
        <ele>575.0058594</ele>
        <time>2021-07-05T11:33:13Z</time>
      </trkpt>
      <trkpt lat="44.87071" lon="5.67608">
        <ele>574.0444336</ele>
        <time>2021-07-05T11:33:22Z</time>
      </trkpt>
      <trkpt lat="44.87074" lon="5.67616">
        <ele>574.0444336</ele>
        <time>2021-07-05T11:33:26Z</time>
      </trkpt>
      <trkpt lat="44.87075" lon="5.67627">
        <ele>572.6025391</ele>
        <time>2021-07-05T11:33:38Z</time>
      </trkpt>
      <trkpt lat="44.87074" lon="5.67628">
        <ele>572.1218262</ele>
        <time>2021-07-05T11:33:41Z</time>
      </trkpt>
      <trkpt lat="44.87077" lon="5.67636">
        <ele>570.6796875</ele>
        <time>2021-07-05T11:33:56Z</time>
      </trkpt>
      <trkpt lat="44.87078" lon="5.67642">
        <ele>569.237793</ele>
        <time>2021-07-05T11:34:08Z</time>
      </trkpt>
      <trkpt lat="44.8708" lon="5.67642">
        <ele>568.7570801</ele>
        <time>2021-07-05T11:34:12Z</time>
      </trkpt>
      <trkpt lat="44.87083" lon="5.67645">
        <ele>565.3925781</ele>
        <time>2021-07-05T11:34:25Z</time>
      </trkpt>
      <trkpt lat="44.87088" lon="5.67649">
        <ele>563.4699707</ele>
        <time>2021-07-05T11:34:35Z</time>
      </trkpt>
      <trkpt lat="44.87087" lon="5.6765">
        <ele>562.5085449</ele>
        <time>2021-07-05T11:34:41Z</time>
      </trkpt>
      <trkpt lat="44.87084" lon="5.67652">
        <ele>562.0280762</ele>
        <time>2021-07-05T11:34:44Z</time>
      </trkpt>
      <trkpt lat="44.87079" lon="5.67657">
        <ele>560.5859375</ele>
        <time>2021-07-05T11:34:51Z</time>
      </trkpt>
      <trkpt lat="44.87088" lon="5.6766">
        <ele>558.6633301</ele>
        <time>2021-07-05T11:35:01Z</time>
      </trkpt>
      <trkpt lat="44.87101" lon="5.67659">
        <ele>556.2600098</ele>
        <time>2021-07-05T11:35:15Z</time>
      </trkpt>
      <trkpt lat="44.87107" lon="5.67662">
        <ele>554.8178711</ele>
        <time>2021-07-05T11:35:20Z</time>
      </trkpt>
      <trkpt lat="44.87114" lon="5.67655">
        <ele>554.3374023</ele>
        <time>2021-07-05T11:35:27Z</time>
      </trkpt>
      <trkpt lat="44.87123" lon="5.67649">
        <ele>552.4145508</ele>
        <time>2021-07-05T11:35:42Z</time>
      </trkpt>
      <trkpt lat="44.87123" lon="5.6765">
        <ele>552.4145508</ele>
        <time>2021-07-05T11:35:44Z</time>
      </trkpt>
      <trkpt lat="44.87132" lon="5.67654">
        <ele>550.9726563</ele>
        <time>2021-07-05T11:35:57Z</time>
      </trkpt>
      <trkpt lat="44.87139" lon="5.67654">
        <ele>549.0500488</ele>
        <time>2021-07-05T11:36:07Z</time>
      </trkpt>
      <trkpt lat="44.87148" lon="5.67659">
        <ele>547.1274414</ele>
        <time>2021-07-05T11:36:19Z</time>
      </trkpt>
      <trkpt lat="44.87163" lon="5.67663">
        <ele>546.1662598</ele>
        <time>2021-07-05T11:36:32Z</time>
      </trkpt>
      <trkpt lat="44.87182" lon="5.67671">
        <ele>545.204834</ele>
        <time>2021-07-05T11:36:49Z</time>
      </trkpt>
      <trkpt lat="44.87185" lon="5.67674">
        <ele>545.204834</ele>
        <time>2021-07-05T11:36:51Z</time>
      </trkpt>
      <trkpt lat="44.87189" lon="5.67677">
        <ele>544.7242432</ele>
        <time>2021-07-05T11:36:55Z</time>
      </trkpt>
      <trkpt lat="44.87202" lon="5.67689">
        <ele>545.204834</ele>
        <time>2021-07-05T11:37:12Z</time>
      </trkpt>
      <trkpt lat="44.87217" lon="5.67695">
        <ele>545.6855469</ele>
        <time>2021-07-05T11:37:27Z</time>
      </trkpt>
      <trkpt lat="44.87231" lon="5.67698">
        <ele>546.6468506</ele>
        <time>2021-07-05T11:37:40Z</time>
      </trkpt>
      <trkpt lat="44.87247" lon="5.67705">
        <ele>547.6081543</ele>
        <time>2021-07-05T11:37:55Z</time>
      </trkpt>
      <trkpt lat="44.8726" lon="5.67708">
        <ele>549.0500488</ele>
        <time>2021-07-05T11:38:09Z</time>
      </trkpt>
      <trkpt lat="44.87276" lon="5.67716">
        <ele>551.934082</ele>
        <time>2021-07-05T11:38:30Z</time>
      </trkpt>
      <trkpt lat="44.87282" lon="5.67719">
        <ele>552.4145508</ele>
        <time>2021-07-05T11:38:38Z</time>
      </trkpt>
      <trkpt lat="44.87287" lon="5.67727">
        <ele>552.8952637</ele>
        <time>2021-07-05T11:38:48Z</time>
      </trkpt>
      <trkpt lat="44.87288" lon="5.67729">
        <ele>553.8566895</ele>
        <time>2021-07-05T11:38:50Z</time>
      </trkpt>
      <trkpt lat="44.87302" lon="5.67729">
        <ele>554.3374023</ele>
        <time>2021-07-05T11:39:08Z</time>
      </trkpt>
      <trkpt lat="44.87303" lon="5.6773">
        <ele>554.3374023</ele>
        <time>2021-07-05T11:39:12Z</time>
      </trkpt>
      <trkpt lat="44.87306" lon="5.67729">
        <ele>553.8566895</ele>
        <time>2021-07-05T11:39:25Z</time>
      </trkpt>
      <trkpt lat="44.87314" lon="5.67725">
        <ele>554.8178711</ele>
        <time>2021-07-05T11:39:38Z</time>
      </trkpt>
      <trkpt lat="44.87314" lon="5.67724">
        <ele>554.8178711</ele>
        <time>2021-07-05T11:40:39Z</time>
      </trkpt>
      <trkpt lat="44.87314" lon="5.67714">
        <ele>556.2600098</ele>
        <time>2021-07-05T11:43:57Z</time>
      </trkpt>
      <trkpt lat="44.87315" lon="5.67705">
        <ele>557.7021484</ele>
        <time>2021-07-05T11:44:10Z</time>
      </trkpt>
      <trkpt lat="44.87318" lon="5.67698">
        <ele>560.1052246</ele>
        <time>2021-07-05T11:44:21Z</time>
      </trkpt>
      <trkpt lat="44.87322" lon="5.67687">
        <ele>562.0280762</ele>
        <time>2021-07-05T11:44:35Z</time>
      </trkpt>
      <trkpt lat="44.8733" lon="5.67678">
        <ele>564.9118652</ele>
        <time>2021-07-05T11:44:54Z</time>
      </trkpt>
      <trkpt lat="44.87339" lon="5.67674">
        <ele>566.8344727</ele>
        <time>2021-07-05T11:45:08Z</time>
      </trkpt>
      <trkpt lat="44.87345" lon="5.6767">
        <ele>568.7570801</ele>
        <time>2021-07-05T11:45:22Z</time>
      </trkpt>
      <trkpt lat="44.87338" lon="5.67663">
        <ele>569.7185059</ele>
        <time>2021-07-05T11:45:39Z</time>
      </trkpt>
      <trkpt lat="44.87345" lon="5.67664">
        <ele>570.1989746</ele>
        <time>2021-07-05T11:45:47Z</time>
      </trkpt>
      <trkpt lat="44.8737" lon="5.67665">
        <ele>570.1989746</ele>
        <time>2021-07-05T11:46:11Z</time>
      </trkpt>
      <trkpt lat="44.87379" lon="5.67665">
        <ele>570.6796875</ele>
        <time>2021-07-05T11:46:20Z</time>
      </trkpt>
      <trkpt lat="44.87385" lon="5.6767">
        <ele>571.1604004</ele>
        <time>2021-07-05T11:46:25Z</time>
      </trkpt>
      <trkpt lat="44.87403" lon="5.67681">
        <ele>571.6408691</ele>
        <time>2021-07-05T11:46:40Z</time>
      </trkpt>
      <trkpt lat="44.87406" lon="5.67683">
        <ele>571.6408691</ele>
        <time>2021-07-05T11:46:43Z</time>
      </trkpt>
      <trkpt lat="44.87411" lon="5.67685">
        <ele>571.6408691</ele>
        <time>2021-07-05T11:46:48Z</time>
      </trkpt>
      <trkpt lat="44.87418" lon="5.6769">
        <ele>572.1218262</ele>
        <time>2021-07-05T11:46:55Z</time>
      </trkpt>
      <trkpt lat="44.87421" lon="5.67691">
        <ele>572.1218262</ele>
        <time>2021-07-05T11:46:58Z</time>
      </trkpt>
      <trkpt lat="44.87424" lon="5.67691">
        <ele>572.1218262</ele>
        <time>2021-07-05T11:47:02Z</time>
      </trkpt>
      <trkpt lat="44.8743" lon="5.67699">
        <ele>572.1218262</ele>
        <time>2021-07-05T11:47:09Z</time>
      </trkpt>
      <trkpt lat="44.87433" lon="5.677">
        <ele>572.6025391</ele>
        <time>2021-07-05T11:47:12Z</time>
      </trkpt>
      <trkpt lat="44.87451" lon="5.677">
        <ele>573.083252</ele>
        <time>2021-07-05T11:47:28Z</time>
      </trkpt>
      <trkpt lat="44.87454" lon="5.677">
        <ele>573.083252</ele>
        <time>2021-07-05T11:47:30Z</time>
      </trkpt>
      <trkpt lat="44.87469" lon="5.67702">
        <ele>573.5639648</ele>
        <time>2021-07-05T11:47:44Z</time>
      </trkpt>
      <trkpt lat="44.8748" lon="5.67701">
        <ele>573.5639648</ele>
        <time>2021-07-05T11:47:54Z</time>
      </trkpt>
      <trkpt lat="44.87494" lon="5.67698">
        <ele>574.0444336</ele>
        <time>2021-07-05T11:48:06Z</time>
      </trkpt>
      <trkpt lat="44.8751" lon="5.677">
        <ele>573.5639648</ele>
        <time>2021-07-05T11:48:20Z</time>
      </trkpt>
      <trkpt lat="44.87517" lon="5.67701">
        <ele>574.0444336</ele>
        <time>2021-07-05T11:48:26Z</time>
      </trkpt>
      <trkpt lat="44.87521" lon="5.67702">
        <ele>574.0444336</ele>
        <time>2021-07-05T11:48:30Z</time>
      </trkpt>
      <trkpt lat="44.87533" lon="5.67709">
        <ele>574.5251465</ele>
        <time>2021-07-05T11:48:39Z</time>
      </trkpt>
      <trkpt lat="44.87536" lon="5.67712">
        <ele>574.0444336</ele>
        <time>2021-07-05T11:48:41Z</time>
      </trkpt>
      <trkpt lat="44.87539" lon="5.67712">
        <ele>574.0444336</ele>
        <time>2021-07-05T11:48:44Z</time>
      </trkpt>
      <trkpt lat="44.87558" lon="5.67715">
        <ele>574.0444336</ele>
        <time>2021-07-05T11:49:00Z</time>
      </trkpt>
      <trkpt lat="44.87569" lon="5.67716">
        <ele>573.5639648</ele>
        <time>2021-07-05T11:49:10Z</time>
      </trkpt>
      <trkpt lat="44.87573" lon="5.67718">
        <ele>573.5639648</ele>
        <time>2021-07-05T11:49:13Z</time>
      </trkpt>
      <trkpt lat="44.87579" lon="5.6772">
        <ele>573.083252</ele>
        <time>2021-07-05T11:49:18Z</time>
      </trkpt>
      <trkpt lat="44.87599" lon="5.67726">
        <ele>572.6025391</ele>
        <time>2021-07-05T11:49:33Z</time>
      </trkpt>
      <trkpt lat="44.87603" lon="5.67725">
        <ele>571.6408691</ele>
        <time>2021-07-05T11:49:36Z</time>
      </trkpt>
      <trkpt lat="44.87619" lon="5.67726">
        <ele>572.1218262</ele>
        <time>2021-07-05T11:49:49Z</time>
      </trkpt>
      <trkpt lat="44.87629" lon="5.6773">
        <ele>571.6408691</ele>
        <time>2021-07-05T11:49:59Z</time>
      </trkpt>
      <trkpt lat="44.87634" lon="5.6773">
        <ele>571.1604004</ele>
        <time>2021-07-05T11:50:02Z</time>
      </trkpt>
      <trkpt lat="44.87643" lon="5.67729">
        <ele>571.1604004</ele>
        <time>2021-07-05T11:50:08Z</time>
      </trkpt>
      <trkpt lat="44.87651" lon="5.67727">
        <ele>570.6796875</ele>
        <time>2021-07-05T11:50:15Z</time>
      </trkpt>
      <trkpt lat="44.87653" lon="5.67726">
        <ele>570.6796875</ele>
        <time>2021-07-05T11:50:18Z</time>
      </trkpt>
      <trkpt lat="44.87666" lon="5.67725">
        <ele>570.6796875</ele>
        <time>2021-07-05T11:50:32Z</time>
      </trkpt>
      <trkpt lat="44.87672" lon="5.67722">
        <ele>570.6796875</ele>
        <time>2021-07-05T11:50:38Z</time>
      </trkpt>
      <trkpt lat="44.87675" lon="5.67722">
        <ele>571.1604004</ele>
        <time>2021-07-05T11:50:40Z</time>
      </trkpt>
      <trkpt lat="44.87681" lon="5.67723">
        <ele>570.6796875</ele>
        <time>2021-07-05T11:50:46Z</time>
      </trkpt>
      <trkpt lat="44.87696" lon="5.67723">
        <ele>571.1604004</ele>
        <time>2021-07-05T11:51:00Z</time>
      </trkpt>
      <trkpt lat="44.87696" lon="5.67723">
        <ele>571.1604004</ele>
        <time>2021-07-05T11:51:01Z</time>
      </trkpt>
      <trkpt lat="44.87704" lon="5.67725">
        <ele>570.6796875</ele>
        <time>2021-07-05T11:51:09Z</time>
      </trkpt>
      <trkpt lat="44.87708" lon="5.67725">
        <ele>571.1604004</ele>
        <time>2021-07-05T11:51:15Z</time>
      </trkpt>
      <trkpt lat="44.8771" lon="5.67727">
        <ele>570.6796875</ele>
        <time>2021-07-05T11:51:18Z</time>
      </trkpt>
      <trkpt lat="44.87724" lon="5.67725">
        <ele>571.1604004</ele>
        <time>2021-07-05T11:51:28Z</time>
      </trkpt>
      <trkpt lat="44.87741" lon="5.67724">
        <ele>570.6796875</ele>
        <time>2021-07-05T11:51:45Z</time>
      </trkpt>
      <trkpt lat="44.87758" lon="5.67723">
        <ele>570.6796875</ele>
        <time>2021-07-05T11:52:01Z</time>
      </trkpt>
      <trkpt lat="44.87782" lon="5.67718">
        <ele>570.6796875</ele>
        <time>2021-07-05T11:52:23Z</time>
      </trkpt>
      <trkpt lat="44.87796" lon="5.67715">
        <ele>570.6796875</ele>
        <time>2021-07-05T11:52:30Z</time>
      </trkpt>
      <trkpt lat="44.878" lon="5.67713">
        <ele>570.1989746</ele>
        <time>2021-07-05T11:52:34Z</time>
      </trkpt>
      <trkpt lat="44.87817" lon="5.67713">
        <ele>571.1604004</ele>
        <time>2021-07-05T11:52:52Z</time>
      </trkpt>
      <trkpt lat="44.87842" lon="5.6771">
        <ele>572.1218262</ele>
        <time>2021-07-05T11:53:11Z</time>
      </trkpt>
      <trkpt lat="44.87855" lon="5.67707">
        <ele>572.6025391</ele>
        <time>2021-07-05T11:53:19Z</time>
      </trkpt>
      <trkpt lat="44.87865" lon="5.67706">
        <ele>573.083252</ele>
        <time>2021-07-05T11:53:27Z</time>
      </trkpt>
      <trkpt lat="44.87878" lon="5.67704">
        <ele>572.1218262</ele>
        <time>2021-07-05T11:53:40Z</time>
      </trkpt>
      <trkpt lat="44.87882" lon="5.67703">
        <ele>572.1218262</ele>
        <time>2021-07-05T11:53:44Z</time>
      </trkpt>
      <trkpt lat="44.87885" lon="5.67703">
        <ele>571.6408691</ele>
        <time>2021-07-05T11:53:46Z</time>
      </trkpt>
      <trkpt lat="44.87889" lon="5.67702">
        <ele>572.1218262</ele>
        <time>2021-07-05T11:53:49Z</time>
      </trkpt>
      <trkpt lat="44.87891" lon="5.67699">
        <ele>571.6408691</ele>
        <time>2021-07-05T11:53:52Z</time>
      </trkpt>
      <trkpt lat="44.87893" lon="5.67698">
        <ele>571.1604004</ele>
        <time>2021-07-05T11:53:54Z</time>
      </trkpt>
      <trkpt lat="44.87902" lon="5.67696">
        <ele>571.1604004</ele>
        <time>2021-07-05T11:54:02Z</time>
      </trkpt>
      <trkpt lat="44.87905" lon="5.67695">
        <ele>570.6796875</ele>
        <time>2021-07-05T11:54:04Z</time>
      </trkpt>
      <trkpt lat="44.87924" lon="5.67687">
        <ele>570.6796875</ele>
        <time>2021-07-05T11:54:21Z</time>
      </trkpt>
      <trkpt lat="44.87942" lon="5.6768">
        <ele>571.6408691</ele>
        <time>2021-07-05T11:54:37Z</time>
      </trkpt>
      <trkpt lat="44.87956" lon="5.67673">
        <ele>572.1218262</ele>
        <time>2021-07-05T11:54:54Z</time>
      </trkpt>
      <trkpt lat="44.87958" lon="5.6767">
        <ele>572.1218262</ele>
        <time>2021-07-05T11:54:56Z</time>
      </trkpt>
      <trkpt lat="44.87976" lon="5.67662">
        <ele>573.083252</ele>
        <time>2021-07-05T11:55:10Z</time>
      </trkpt>
      <trkpt lat="44.87997" lon="5.67658">
        <ele>575.0058594</ele>
        <time>2021-07-05T11:55:25Z</time>
      </trkpt>
      <trkpt lat="44.88001" lon="5.67646">
        <ele>575.4863281</ele>
        <time>2021-07-05T11:55:42Z</time>
      </trkpt>
      <trkpt lat="44.88002" lon="5.67646">
        <ele>575.4863281</ele>
        <time>2021-07-05T11:56:27Z</time>
      </trkpt>
      <trkpt lat="44.88004" lon="5.67643">
        <ele>575.0058594</ele>
        <time>2021-07-05T11:56:33Z</time>
      </trkpt>
      <trkpt lat="44.8801" lon="5.67643">
        <ele>571.6408691</ele>
        <time>2021-07-05T11:56:43Z</time>
      </trkpt>
      <trkpt lat="44.88014" lon="5.67655">
        <ele>568.7570801</ele>
        <time>2021-07-05T11:57:00Z</time>
      </trkpt>
      <trkpt lat="44.88024" lon="5.67671">
        <ele>566.3537598</ele>
        <time>2021-07-05T11:57:11Z</time>
      </trkpt>
      <trkpt lat="44.8803" lon="5.67668">
        <ele>565.873291</ele>
        <time>2021-07-05T11:57:17Z</time>
      </trkpt>
      <trkpt lat="44.88045" lon="5.67667">
        <ele>564.4311523</ele>
        <time>2021-07-05T11:57:33Z</time>
      </trkpt>
      <trkpt lat="44.88055" lon="5.67661">
        <ele>563.4699707</ele>
        <time>2021-07-05T11:57:43Z</time>
      </trkpt>
      <trkpt lat="44.88064" lon="5.67675">
        <ele>560.5859375</ele>
        <time>2021-07-05T11:57:56Z</time>
      </trkpt>
      <trkpt lat="44.88071" lon="5.67683">
        <ele>558.1828613</ele>
        <time>2021-07-05T11:58:09Z</time>
      </trkpt>
      <trkpt lat="44.88086" lon="5.67688">
        <ele>555.298584</ele>
        <time>2021-07-05T11:58:26Z</time>
      </trkpt>
      <trkpt lat="44.88104" lon="5.67689">
        <ele>555.298584</ele>
        <time>2021-07-05T11:58:43Z</time>
      </trkpt>
      <trkpt lat="44.88123" lon="5.67685">
        <ele>552.8952637</ele>
        <time>2021-07-05T11:59:06Z</time>
      </trkpt>
      <trkpt lat="44.88139" lon="5.67677">
        <ele>552.4145508</ele>
        <time>2021-07-05T11:59:30Z</time>
      </trkpt>
      <trkpt lat="44.88162" lon="5.67679">
        <ele>550.4921875</ele>
        <time>2021-07-05T11:59:46Z</time>
      </trkpt>
      <trkpt lat="44.88172" lon="5.67677">
        <ele>549.5307617</ele>
        <time>2021-07-05T12:00:01Z</time>
      </trkpt>
      <trkpt lat="44.88175" lon="5.67676">
        <ele>549.0500488</ele>
        <time>2021-07-05T12:00:19Z</time>
      </trkpt>
      <trkpt lat="44.88184" lon="5.67679">
        <ele>549.0500488</ele>
        <time>2021-07-05T12:00:31Z</time>
      </trkpt>
      <trkpt lat="44.88211" lon="5.67679">
        <ele>547.1274414</ele>
        <time>2021-07-05T12:00:57Z</time>
      </trkpt>
      <trkpt lat="44.88229" lon="5.67678">
        <ele>543.7628174</ele>
        <time>2021-07-05T12:01:22Z</time>
      </trkpt>
      <trkpt lat="44.88253" lon="5.67679">
        <ele>541.3594971</ele>
        <time>2021-07-05T12:01:45Z</time>
      </trkpt>
      <trkpt lat="44.88288" lon="5.67667">
        <ele>540.8789063</ele>
        <time>2021-07-05T12:02:18Z</time>
      </trkpt>
      <trkpt lat="44.88304" lon="5.67656">
        <ele>537.5142822</ele>
        <time>2021-07-05T12:02:34Z</time>
      </trkpt>
      <trkpt lat="44.88305" lon="5.67656">
        <ele>537.5142822</ele>
        <time>2021-07-05T12:02:35Z</time>
      </trkpt>
      <trkpt lat="44.88324" lon="5.6765">
        <ele>537.9949951</ele>
        <time>2021-07-05T12:02:52Z</time>
      </trkpt>
      <trkpt lat="44.88338" lon="5.67651">
        <ele>535.5915527</ele>
        <time>2021-07-05T12:03:09Z</time>
      </trkpt>
      <trkpt lat="44.88359" lon="5.67648">
        <ele>534.6303711</ele>
        <time>2021-07-05T12:03:32Z</time>
      </trkpt>
      <trkpt lat="44.88376" lon="5.67639">
        <ele>532.2270508</ele>
        <time>2021-07-05T12:03:52Z</time>
      </trkpt>
      <trkpt lat="44.88393" lon="5.6763">
        <ele>531.2657471</ele>
        <time>2021-07-05T12:04:12Z</time>
      </trkpt>
      <trkpt lat="44.88407" lon="5.67625">
        <ele>530.3044434</ele>
        <time>2021-07-05T12:04:29Z</time>
      </trkpt>
      <trkpt lat="44.8841" lon="5.67623">
        <ele>530.7851563</ele>
        <time>2021-07-05T12:04:31Z</time>
      </trkpt>
      <trkpt lat="44.88417" lon="5.67619">
        <ele>529.8237305</ele>
        <time>2021-07-05T12:04:36Z</time>
      </trkpt>
      <trkpt lat="44.88428" lon="5.67615">
        <ele>526.4591064</ele>
        <time>2021-07-05T12:04:48Z</time>
      </trkpt>
      <trkpt lat="44.88444" lon="5.67612">
        <ele>523.0946045</ele>
        <time>2021-07-05T12:05:00Z</time>
      </trkpt>
      <trkpt lat="44.88462" lon="5.67609">
        <ele>520.2105713</ele>
        <time>2021-07-05T12:05:16Z</time>
      </trkpt>
      <trkpt lat="44.88474" lon="5.67607">
        <ele>517.3266602</ele>
        <time>2021-07-05T12:05:32Z</time>
      </trkpt>
      <trkpt lat="44.88488" lon="5.67601">
        <ele>513.4814453</ele>
        <time>2021-07-05T12:05:48Z</time>
      </trkpt>
      <trkpt lat="44.88509" lon="5.67602">
        <ele>513.4814453</ele>
        <time>2021-07-05T12:06:07Z</time>
      </trkpt>
      <trkpt lat="44.88526" lon="5.67594">
        <ele>516.3652344</ele>
        <time>2021-07-05T12:06:24Z</time>
      </trkpt>
      <trkpt lat="44.88528" lon="5.67594">
        <ele>516.8459473</ele>
        <time>2021-07-05T12:06:26Z</time>
      </trkpt>
      <trkpt lat="44.88545" lon="5.67576">
        <ele>519.2492676</ele>
        <time>2021-07-05T12:06:49Z</time>
      </trkpt>
      <trkpt lat="44.88564" lon="5.67569">
        <ele>518.7685547</ele>
        <time>2021-07-05T12:07:09Z</time>
      </trkpt>
      <trkpt lat="44.88582" lon="5.67554">
        <ele>519.7298584</ele>
        <time>2021-07-05T12:07:27Z</time>
      </trkpt>
      <trkpt lat="44.88599" lon="5.6756">
        <ele>518.7685547</ele>
        <time>2021-07-05T12:07:49Z</time>
      </trkpt>
      <trkpt lat="44.88607" lon="5.67559">
        <ele>516.8459473</ele>
        <time>2021-07-05T12:07:59Z</time>
      </trkpt>
      <trkpt lat="44.88625" lon="5.67552">
        <ele>515.4040527</ele>
        <time>2021-07-05T12:08:17Z</time>
      </trkpt>
      <trkpt lat="44.88646" lon="5.67548">
        <ele>514.9233398</ele>
        <time>2021-07-05T12:08:36Z</time>
      </trkpt>
      <trkpt lat="44.88662" lon="5.67546">
        <ele>513.9620361</ele>
        <time>2021-07-05T12:08:54Z</time>
      </trkpt>
      <trkpt lat="44.88665" lon="5.67542">
        <ele>513.4814453</ele>
        <time>2021-07-05T12:09:01Z</time>
      </trkpt>
      <trkpt lat="44.88682" lon="5.67541">
        <ele>513.4814453</ele>
        <time>2021-07-05T12:09:17Z</time>
      </trkpt>
      <trkpt lat="44.88703" lon="5.67537">
        <ele>511.5587158</ele>
        <time>2021-07-05T12:09:38Z</time>
      </trkpt>
      <trkpt lat="44.8871" lon="5.6754">
        <ele>507.713501</ele>
        <time>2021-07-05T12:09:49Z</time>
      </trkpt>
      <trkpt lat="44.88731" lon="5.67538">
        <ele>505.7908936</ele>
        <time>2021-07-05T12:10:06Z</time>
      </trkpt>
      <trkpt lat="44.88743" lon="5.6754">
        <ele>506.2714844</ele>
        <time>2021-07-05T12:10:18Z</time>
      </trkpt>
      <trkpt lat="44.88744" lon="5.67539">
        <ele>506.7520752</ele>
        <time>2021-07-05T12:10:20Z</time>
      </trkpt>
      <trkpt lat="44.88749" lon="5.67538">
        <ele>505.3101807</ele>
        <time>2021-07-05T12:10:34Z</time>
      </trkpt>
      <trkpt lat="44.88754" lon="5.67534">
        <ele>504.8294678</ele>
        <time>2021-07-05T12:11:09Z</time>
      </trkpt>
      <trkpt lat="44.8876" lon="5.67529">
        <ele>505.3101807</ele>
        <time>2021-07-05T12:11:30Z</time>
      </trkpt>
      <trkpt lat="44.88759" lon="5.67531">
        <ele>504.8294678</ele>
        <time>2021-07-05T12:12:06Z</time>
      </trkpt>
      <trkpt lat="44.88759" lon="5.67529">
        <ele>504.348877</ele>
        <time>2021-07-05T12:12:50Z</time>
      </trkpt>
      <trkpt lat="44.88759" lon="5.6753">
        <ele>504.348877</ele>
        <time>2021-07-05T12:12:58Z</time>
      </trkpt>
      <trkpt lat="44.8877" lon="5.67525">
        <ele>504.8294678</ele>
        <time>2021-07-05T12:13:15Z</time>
      </trkpt>
      <trkpt lat="44.88775" lon="5.67522">
        <ele>504.8294678</ele>
        <time>2021-07-05T12:13:25Z</time>
      </trkpt>
      <trkpt lat="44.88778" lon="5.67511">
        <ele>506.2714844</ele>
        <time>2021-07-05T12:13:42Z</time>
      </trkpt>
      <trkpt lat="44.8879" lon="5.67495">
        <ele>509.1553955</ele>
        <time>2021-07-05T12:13:59Z</time>
      </trkpt>
      <trkpt lat="44.88799" lon="5.67489">
        <ele>510.59729</ele>
        <time>2021-07-05T12:14:19Z</time>
      </trkpt>
      <trkpt lat="44.88812" lon="5.6748">
        <ele>511.5587158</ele>
        <time>2021-07-05T12:14:38Z</time>
      </trkpt>
      <trkpt lat="44.88835" lon="5.67466">
        <ele>511.5587158</ele>
        <time>2021-07-05T12:14:59Z</time>
      </trkpt>
      <trkpt lat="44.88851" lon="5.67465">
        <ele>510.59729</ele>
        <time>2021-07-05T12:15:19Z</time>
      </trkpt>
      <trkpt lat="44.88868" lon="5.67468">
        <ele>509.1553955</ele>
        <time>2021-07-05T12:15:37Z</time>
      </trkpt>
      <trkpt lat="44.8889" lon="5.67464">
        <ele>510.59729</ele>
        <time>2021-07-05T12:15:57Z</time>
      </trkpt>
      <trkpt lat="44.88904" lon="5.67448">
        <ele>511.0780029</ele>
        <time>2021-07-05T12:16:14Z</time>
      </trkpt>
      <trkpt lat="44.88927" lon="5.6744">
        <ele>509.1553955</ele>
        <time>2021-07-05T12:16:34Z</time>
      </trkpt>
      <trkpt lat="44.8893" lon="5.67438">
        <ele>509.6361084</ele>
        <time>2021-07-05T12:16:38Z</time>
      </trkpt>
      <trkpt lat="44.8894" lon="5.67437">
        <ele>510.1166992</ele>
        <time>2021-07-05T12:16:56Z</time>
      </trkpt>
      <trkpt lat="44.88942" lon="5.67451">
        <ele>506.2714844</ele>
        <time>2021-07-05T12:17:11Z</time>
      </trkpt>
      <trkpt lat="44.88941" lon="5.67456">
        <ele>505.7908936</ele>
        <time>2021-07-05T12:17:32Z</time>
      </trkpt>
      <trkpt lat="44.8894" lon="5.6746">
        <ele>505.3101807</ele>
        <time>2021-07-05T12:17:36Z</time>
      </trkpt>
      <trkpt lat="44.88937" lon="5.67478">
        <ele>503.8681641</ele>
        <time>2021-07-05T12:17:48Z</time>
      </trkpt>
      <trkpt lat="44.88947" lon="5.67491">
        <ele>502.4261475</ele>
        <time>2021-07-05T12:17:59Z</time>
      </trkpt>
      <trkpt lat="44.88951" lon="5.67494">
        <ele>501.9455566</ele>
        <time>2021-07-05T12:18:02Z</time>
      </trkpt>
      <trkpt lat="44.88969" lon="5.67497">
        <ele>500.9841309</ele>
        <time>2021-07-05T12:18:20Z</time>
      </trkpt>
      <trkpt lat="44.8898" lon="5.67498">
        <ele>500.50354</ele>
        <time>2021-07-05T12:18:34Z</time>
      </trkpt>
      <trkpt lat="44.88994" lon="5.67493">
        <ele>500.0229492</ele>
        <time>2021-07-05T12:18:52Z</time>
      </trkpt>
      <trkpt lat="44.89022" lon="5.67488">
        <ele>499.5422363</ele>
        <time>2021-07-05T12:19:17Z</time>
      </trkpt>
      <trkpt lat="44.89047" lon="5.6749">
        <ele>498.5809326</ele>
        <time>2021-07-05T12:19:39Z</time>
      </trkpt>
      <trkpt lat="44.89068" lon="5.67502">
        <ele>499.5422363</ele>
        <time>2021-07-05T12:20:00Z</time>
      </trkpt>
      <trkpt lat="44.8908" lon="5.67506">
        <ele>499.0615234</ele>
        <time>2021-07-05T12:20:11Z</time>
      </trkpt>
      <trkpt lat="44.891" lon="5.67511">
        <ele>499.0615234</ele>
        <time>2021-07-05T12:20:29Z</time>
      </trkpt>
      <trkpt lat="44.89108" lon="5.67515">
        <ele>499.0615234</ele>
        <time>2021-07-05T12:20:36Z</time>
      </trkpt>
      <trkpt lat="44.89127" lon="5.67521">
        <ele>498.5809326</ele>
        <time>2021-07-05T12:20:53Z</time>
      </trkpt>
      <trkpt lat="44.89146" lon="5.67524">
        <ele>498.1003418</ele>
        <time>2021-07-05T12:21:10Z</time>
      </trkpt>
      <trkpt lat="44.89169" lon="5.67531">
        <ele>498.1003418</ele>
        <time>2021-07-05T12:21:31Z</time>
      </trkpt>
      <trkpt lat="44.89185" lon="5.67516">
        <ele>498.1003418</ele>
        <time>2021-07-05T12:21:48Z</time>
      </trkpt>
      <trkpt lat="44.892" lon="5.67504">
        <ele>499.5422363</ele>
        <time>2021-07-05T12:22:04Z</time>
      </trkpt>
      <trkpt lat="44.89208" lon="5.67499">
        <ele>500.9841309</ele>
        <time>2021-07-05T12:22:14Z</time>
      </trkpt>
      <trkpt lat="44.8921" lon="5.67498">
        <ele>500.9841309</ele>
        <time>2021-07-05T12:22:16Z</time>
      </trkpt>
      <trkpt lat="44.89227" lon="5.67486">
        <ele>502.9067383</ele>
        <time>2021-07-05T12:22:36Z</time>
      </trkpt>
      <trkpt lat="44.8923" lon="5.67481">
        <ele>502.9067383</ele>
        <time>2021-07-05T12:22:39Z</time>
      </trkpt>
      <trkpt lat="44.89246" lon="5.67483">
        <ele>503.3874512</ele>
        <time>2021-07-05T12:22:55Z</time>
      </trkpt>
      <trkpt lat="44.89251" lon="5.67483">
        <ele>503.3874512</ele>
        <time>2021-07-05T12:23:00Z</time>
      </trkpt>
      <trkpt lat="44.89273" lon="5.67488">
        <ele>503.8681641</ele>
        <time>2021-07-05T12:23:20Z</time>
      </trkpt>
      <trkpt lat="44.89296" lon="5.67491">
        <ele>503.8681641</ele>
        <time>2021-07-05T12:23:40Z</time>
      </trkpt>
      <trkpt lat="44.89317" lon="5.67492">
        <ele>503.8681641</ele>
        <time>2021-07-05T12:23:57Z</time>
      </trkpt>
      <trkpt lat="44.8933" lon="5.67492">
        <ele>503.8681641</ele>
        <time>2021-07-05T12:24:09Z</time>
      </trkpt>
      <trkpt lat="44.89346" lon="5.67496">
        <ele>502.9067383</ele>
        <time>2021-07-05T12:24:24Z</time>
      </trkpt>
      <trkpt lat="44.89357" lon="5.67496">
        <ele>501.4648438</ele>
        <time>2021-07-05T12:24:42Z</time>
      </trkpt>
      <trkpt lat="44.89352" lon="5.67497">
        <ele>501.4648438</ele>
        <time>2021-07-05T12:24:53Z</time>
      </trkpt>
      <trkpt lat="44.89338" lon="5.67514">
        <ele>500.0229492</ele>
        <time>2021-07-05T12:25:14Z</time>
      </trkpt>
      <trkpt lat="44.89337" lon="5.67512">
        <ele>500.0229492</ele>
        <time>2021-07-05T12:25:48Z</time>
      </trkpt>
      <trkpt lat="44.89351" lon="5.67512">
        <ele>499.5422363</ele>
        <time>2021-07-05T12:26:18Z</time>
      </trkpt>
      <trkpt lat="44.89374" lon="5.67507">
        <ele>499.5422363</ele>
        <time>2021-07-05T12:26:40Z</time>
      </trkpt>
      <trkpt lat="44.89388" lon="5.67504">
        <ele>499.5422363</ele>
        <time>2021-07-05T12:26:59Z</time>
      </trkpt>
      <trkpt lat="44.89408" lon="5.67501">
        <ele>499.5422363</ele>
        <time>2021-07-05T12:27:22Z</time>
      </trkpt>
      <trkpt lat="44.89425" lon="5.67498">
        <ele>499.5422363</ele>
        <time>2021-07-05T12:27:42Z</time>
      </trkpt>
      <trkpt lat="44.89442" lon="5.67499">
        <ele>499.0615234</ele>
        <time>2021-07-05T12:28:07Z</time>
      </trkpt>
      <trkpt lat="44.89456" lon="5.67501">
        <ele>498.5809326</ele>
        <time>2021-07-05T12:28:29Z</time>
      </trkpt>
      <trkpt lat="44.89475" lon="5.67496">
        <ele>498.1003418</ele>
        <time>2021-07-05T12:28:44Z</time>
      </trkpt>
      <trkpt lat="44.89488" lon="5.67491">
        <ele>497.6196289</ele>
        <time>2021-07-05T12:28:55Z</time>
      </trkpt>
      <trkpt lat="44.89499" lon="5.675">
        <ele>495.2161865</ele>
        <time>2021-07-05T12:29:11Z</time>
      </trkpt>
      <trkpt lat="44.89508" lon="5.67505">
        <ele>493.2935791</ele>
        <time>2021-07-05T12:29:31Z</time>
      </trkpt>
      <trkpt lat="44.8951" lon="5.67504">
        <ele>493.2935791</ele>
        <time>2021-07-05T12:30:35Z</time>
      </trkpt>
      <trkpt lat="44.8951" lon="5.67504">
        <ele>492.8129883</ele>
        <time>2021-07-05T12:30:54Z</time>
      </trkpt>
      <trkpt lat="44.89509" lon="5.67504">
        <ele>489.9290771</ele>
        <time>2021-07-05T12:39:50Z</time>
      </trkpt>
      <trkpt lat="44.89503" lon="5.675">
        <ele>489.4483643</ele>
        <time>2021-07-05T12:54:02Z</time>
      </trkpt>
      <trkpt lat="44.89501" lon="5.67498">
        <ele>489.9290771</ele>
        <time>2021-07-05T12:54:05Z</time>
      </trkpt>
      <trkpt lat="44.89497" lon="5.67493">
        <ele>490.40979</ele>
        <time>2021-07-05T12:54:11Z</time>
      </trkpt>
      <trkpt lat="44.89491" lon="5.67488">
        <ele>491.3709717</ele>
        <time>2021-07-05T12:54:22Z</time>
      </trkpt>
      <trkpt lat="44.89478" lon="5.6749">
        <ele>493.2935791</ele>
        <time>2021-07-05T12:54:39Z</time>
      </trkpt>
      <trkpt lat="44.89469" lon="5.67489">
        <ele>493.774292</ele>
        <time>2021-07-05T12:54:45Z</time>
      </trkpt>
      <trkpt lat="44.89461" lon="5.67487">
        <ele>493.2935791</ele>
        <time>2021-07-05T12:54:52Z</time>
      </trkpt>
      <trkpt lat="44.89451" lon="5.67486">
        <ele>493.2935791</ele>
        <time>2021-07-05T12:55:05Z</time>
      </trkpt>
      <trkpt lat="44.89452" lon="5.67486">
        <ele>493.2935791</ele>
        <time>2021-07-05T12:55:30Z</time>
      </trkpt>
      <trkpt lat="44.89451" lon="5.67487">
        <ele>494.2550049</ele>
        <time>2021-07-05T12:56:01Z</time>
      </trkpt>
      <trkpt lat="44.89452" lon="5.67487">
        <ele>494.2550049</ele>
        <time>2021-07-05T12:56:55Z</time>
      </trkpt>
      <trkpt lat="44.8945" lon="5.67485">
        <ele>493.2935791</ele>
        <time>2021-07-05T12:57:25Z</time>
      </trkpt>
      <trkpt lat="44.89449" lon="5.67485">
        <ele>493.2935791</ele>
        <time>2021-07-05T13:02:56Z</time>
      </trkpt>
      <trkpt lat="44.89451" lon="5.67487">
        <ele>493.774292</ele>
        <time>2021-07-05T13:09:46Z</time>
      </trkpt>
      <trkpt lat="44.89469" lon="5.67482">
        <ele>493.774292</ele>
        <time>2021-07-05T13:10:05Z</time>
      </trkpt>
      <trkpt lat="44.89491" lon="5.67471">
        <ele>494.2550049</ele>
        <time>2021-07-05T13:10:27Z</time>
      </trkpt>
      <trkpt lat="44.89508" lon="5.67465">
        <ele>494.2550049</ele>
        <time>2021-07-05T13:10:45Z</time>
      </trkpt>
      <trkpt lat="44.89513" lon="5.67463">
        <ele>494.2550049</ele>
        <time>2021-07-05T13:10:49Z</time>
      </trkpt>
      <trkpt lat="44.89538" lon="5.67457">
        <ele>494.7355957</ele>
        <time>2021-07-05T13:11:13Z</time>
      </trkpt>
      <trkpt lat="44.89541" lon="5.67456">
        <ele>494.7355957</ele>
        <time>2021-07-05T13:11:16Z</time>
      </trkpt>
      <trkpt lat="44.89559" lon="5.6745">
        <ele>494.7355957</ele>
        <time>2021-07-05T13:11:34Z</time>
      </trkpt>
      <trkpt lat="44.89581" lon="5.67437">
        <ele>496.1777344</ele>
        <time>2021-07-05T13:11:59Z</time>
      </trkpt>
      <trkpt lat="44.89593" lon="5.67421">
        <ele>498.5809326</ele>
        <time>2021-07-05T13:12:20Z</time>
      </trkpt>
      <trkpt lat="44.89607" lon="5.67393">
        <ele>500.9841309</ele>
        <time>2021-07-05T13:12:46Z</time>
      </trkpt>
      <trkpt lat="44.89627" lon="5.67368">
        <ele>502.9067383</ele>
        <time>2021-07-05T13:13:12Z</time>
      </trkpt>
      <trkpt lat="44.89645" lon="5.67366">
        <ele>504.348877</ele>
        <time>2021-07-05T13:13:32Z</time>
      </trkpt>
      <trkpt lat="44.89652" lon="5.67365">
        <ele>504.348877</ele>
        <time>2021-07-05T13:13:49Z</time>
      </trkpt>
      <trkpt lat="44.8966" lon="5.67369">
        <ele>504.348877</ele>
        <time>2021-07-05T13:13:56Z</time>
      </trkpt>
      <trkpt lat="44.89671" lon="5.67391">
        <ele>501.9455566</ele>
        <time>2021-07-05T13:14:14Z</time>
      </trkpt>
      <trkpt lat="44.89686" lon="5.67403">
        <ele>500.50354</ele>
        <time>2021-07-05T13:14:32Z</time>
      </trkpt>
      <trkpt lat="44.89705" lon="5.674">
        <ele>499.0615234</ele>
        <time>2021-07-05T13:14:50Z</time>
      </trkpt>
      <trkpt lat="44.89722" lon="5.67387">
        <ele>498.5809326</ele>
        <time>2021-07-05T13:15:06Z</time>
      </trkpt>
      <trkpt lat="44.89741" lon="5.67373">
        <ele>498.1003418</ele>
        <time>2021-07-05T13:15:26Z</time>
      </trkpt>
      <trkpt lat="44.8976" lon="5.67368">
        <ele>499.0615234</ele>
        <time>2021-07-05T13:15:46Z</time>
      </trkpt>
      <trkpt lat="44.89778" lon="5.67365">
        <ele>498.5809326</ele>
        <time>2021-07-05T13:16:04Z</time>
      </trkpt>
      <trkpt lat="44.898" lon="5.67358">
        <ele>498.5809326</ele>
        <time>2021-07-05T13:16:23Z</time>
      </trkpt>
      <trkpt lat="44.89813" lon="5.67356">
        <ele>498.5809326</ele>
        <time>2021-07-05T13:16:37Z</time>
      </trkpt>
      <trkpt lat="44.89835" lon="5.67344">
        <ele>498.5809326</ele>
        <time>2021-07-05T13:17:00Z</time>
      </trkpt>
      <trkpt lat="44.89861" lon="5.67327">
        <ele>500.0229492</ele>
        <time>2021-07-05T13:17:24Z</time>
      </trkpt>
      <trkpt lat="44.89863" lon="5.67325">
        <ele>500.0229492</ele>
        <time>2021-07-05T13:17:26Z</time>
      </trkpt>
      <trkpt lat="44.89884" lon="5.67307">
        <ele>502.4261475</ele>
        <time>2021-07-05T13:17:50Z</time>
      </trkpt>
      <trkpt lat="44.89904" lon="5.67293">
        <ele>505.3101807</ele>
        <time>2021-07-05T13:18:14Z</time>
      </trkpt>
      <trkpt lat="44.8992" lon="5.67283">
        <ele>507.2327881</ele>
        <time>2021-07-05T13:18:33Z</time>
      </trkpt>
      <trkpt lat="44.89944" lon="5.67269">
        <ele>509.6361084</ele>
        <time>2021-07-05T13:18:59Z</time>
      </trkpt>
      <trkpt lat="44.89969" lon="5.67253">
        <ele>512.0394287</ele>
        <time>2021-07-05T13:19:26Z</time>
      </trkpt>
      <trkpt lat="44.89989" lon="5.6724">
        <ele>514.442627</ele>
        <time>2021-07-05T13:19:50Z</time>
      </trkpt>
      <trkpt lat="44.90015" lon="5.67223">
        <ele>517.807251</ele>
        <time>2021-07-05T13:20:19Z</time>
      </trkpt>
      <trkpt lat="44.90046" lon="5.672">
        <ele>520.2105713</ele>
        <time>2021-07-05T13:20:51Z</time>
      </trkpt>
      <trkpt lat="44.90062" lon="5.67172">
        <ele>522.1331787</ele>
        <time>2021-07-05T13:21:16Z</time>
      </trkpt>
      <trkpt lat="44.90082" lon="5.67155">
        <ele>521.6525879</ele>
        <time>2021-07-05T13:21:41Z</time>
      </trkpt>
      <trkpt lat="44.90083" lon="5.67155">
        <ele>521.6525879</ele>
        <time>2021-07-05T13:21:42Z</time>
      </trkpt>
      <trkpt lat="44.90107" lon="5.67152">
        <ele>522.1331787</ele>
        <time>2021-07-05T13:22:04Z</time>
      </trkpt>
      <trkpt lat="44.90134" lon="5.67136">
        <ele>522.6138916</ele>
        <time>2021-07-05T13:22:29Z</time>
      </trkpt>
      <trkpt lat="44.9016" lon="5.67119">
        <ele>523.0946045</ele>
        <time>2021-07-05T13:22:54Z</time>
      </trkpt>
      <trkpt lat="44.90187" lon="5.67105">
        <ele>522.6138916</ele>
        <time>2021-07-05T13:23:19Z</time>
      </trkpt>
      <trkpt lat="44.9019" lon="5.67118">
        <ele>521.6525879</ele>
        <time>2021-07-05T13:23:35Z</time>
      </trkpt>
      <trkpt lat="44.90197" lon="5.67135">
        <ele>518.7685547</ele>
        <time>2021-07-05T13:23:50Z</time>
      </trkpt>
      <trkpt lat="44.90197" lon="5.6715">
        <ele>515.4040527</ele>
        <time>2021-07-05T13:24:04Z</time>
      </trkpt>
      <trkpt lat="44.90202" lon="5.67169">
        <ele>512.0394287</ele>
        <time>2021-07-05T13:24:20Z</time>
      </trkpt>
      <trkpt lat="44.90203" lon="5.67186">
        <ele>508.6746826</ele>
        <time>2021-07-05T13:24:34Z</time>
      </trkpt>
      <trkpt lat="44.90206" lon="5.67197">
        <ele>507.713501</ele>
        <time>2021-07-05T13:24:42Z</time>
      </trkpt>
      <trkpt lat="44.90207" lon="5.67201">
        <ele>507.2327881</ele>
        <time>2021-07-05T13:24:45Z</time>
      </trkpt>
      <trkpt lat="44.90215" lon="5.6722">
        <ele>504.348877</ele>
        <time>2021-07-05T13:25:02Z</time>
      </trkpt>
      <trkpt lat="44.9022" lon="5.67232">
        <ele>503.3874512</ele>
        <time>2021-07-05T13:25:12Z</time>
      </trkpt>
      <trkpt lat="44.90221" lon="5.67252">
        <ele>501.4648438</ele>
        <time>2021-07-05T13:25:25Z</time>
      </trkpt>
      <trkpt lat="44.90223" lon="5.67274">
        <ele>499.0615234</ele>
        <time>2021-07-05T13:25:42Z</time>
      </trkpt>
      <trkpt lat="44.90226" lon="5.67284">
        <ele>498.1003418</ele>
        <time>2021-07-05T13:25:53Z</time>
      </trkpt>
      <trkpt lat="44.90239" lon="5.67285">
        <ele>498.1003418</ele>
        <time>2021-07-05T13:26:08Z</time>
      </trkpt>
      <trkpt lat="44.90255" lon="5.67277">
        <ele>498.1003418</ele>
        <time>2021-07-05T13:26:23Z</time>
      </trkpt>
      <trkpt lat="44.90256" lon="5.67276">
        <ele>498.1003418</ele>
        <time>2021-07-05T13:26:24Z</time>
      </trkpt>
      <trkpt lat="44.90279" lon="5.6727">
        <ele>498.1003418</ele>
        <time>2021-07-05T13:26:47Z</time>
      </trkpt>
      <trkpt lat="44.90306" lon="5.67258">
        <ele>498.1003418</ele>
        <time>2021-07-05T13:27:12Z</time>
      </trkpt>
      <trkpt lat="44.90325" lon="5.67254">
        <ele>497.6196289</ele>
        <time>2021-07-05T13:27:30Z</time>
      </trkpt>
      <trkpt lat="44.90349" lon="5.67247">
        <ele>497.6196289</ele>
        <time>2021-07-05T13:27:52Z</time>
      </trkpt>
      <trkpt lat="44.90366" lon="5.67236">
        <ele>497.6196289</ele>
        <time>2021-07-05T13:28:10Z</time>
      </trkpt>
      <trkpt lat="44.90379" lon="5.67208">
        <ele>499.5422363</ele>
        <time>2021-07-05T13:28:32Z</time>
      </trkpt>
      <trkpt lat="44.90383" lon="5.67191">
        <ele>499.0615234</ele>
        <time>2021-07-05T13:28:47Z</time>
      </trkpt>
      <trkpt lat="44.90404" lon="5.6718">
        <ele>500.0229492</ele>
        <time>2021-07-05T13:29:02Z</time>
      </trkpt>
      <trkpt lat="44.90424" lon="5.67182">
        <ele>499.5422363</ele>
        <time>2021-07-05T13:29:18Z</time>
      </trkpt>
      <trkpt lat="44.90437" lon="5.6719">
        <ele>499.0615234</ele>
        <time>2021-07-05T13:29:33Z</time>
      </trkpt>
      <trkpt lat="44.90458" lon="5.6719">
        <ele>498.1003418</ele>
        <time>2021-07-05T13:29:51Z</time>
      </trkpt>
      <trkpt lat="44.90465" lon="5.67186">
        <ele>498.5809326</ele>
        <time>2021-07-05T13:29:57Z</time>
      </trkpt>
      <trkpt lat="44.90484" lon="5.6718">
        <ele>498.5809326</ele>
        <time>2021-07-05T13:30:12Z</time>
      </trkpt>
      <trkpt lat="44.90503" lon="5.67171">
        <ele>499.0615234</ele>
        <time>2021-07-05T13:30:30Z</time>
      </trkpt>
      <trkpt lat="44.90527" lon="5.67164">
        <ele>498.5809326</ele>
        <time>2021-07-05T13:30:49Z</time>
      </trkpt>
      <trkpt lat="44.90547" lon="5.6716">
        <ele>499.0615234</ele>
        <time>2021-07-05T13:31:05Z</time>
      </trkpt>
      <trkpt lat="44.90564" lon="5.67158">
        <ele>498.5809326</ele>
        <time>2021-07-05T13:31:21Z</time>
      </trkpt>
      <trkpt lat="44.90587" lon="5.67152">
        <ele>498.1003418</ele>
        <time>2021-07-05T13:31:41Z</time>
      </trkpt>
      <trkpt lat="44.9063" lon="5.67148">
        <ele>498.5809326</ele>
        <time>2021-07-05T13:32:11Z</time>
      </trkpt>
      <trkpt lat="44.90654" lon="5.67148">
        <ele>498.1003418</ele>
        <time>2021-07-05T13:32:31Z</time>
      </trkpt>
      <trkpt lat="44.90675" lon="5.67157">
        <ele>498.1003418</ele>
        <time>2021-07-05T13:32:48Z</time>
      </trkpt>
      <trkpt lat="44.90681" lon="5.67161">
        <ele>498.1003418</ele>
        <time>2021-07-05T13:32:54Z</time>
      </trkpt>
      <trkpt lat="44.90702" lon="5.67168">
        <ele>498.1003418</ele>
        <time>2021-07-05T13:33:16Z</time>
      </trkpt>
      <trkpt lat="44.90707" lon="5.67168">
        <ele>498.1003418</ele>
        <time>2021-07-05T13:33:36Z</time>
      </trkpt>
      <trkpt lat="44.90712" lon="5.67166">
        <ele>497.6196289</ele>
        <time>2021-07-05T13:33:50Z</time>
      </trkpt>
      <trkpt lat="44.90725" lon="5.67154">
        <ele>497.6196289</ele>
        <time>2021-07-05T13:34:13Z</time>
      </trkpt>
      <trkpt lat="44.90721" lon="5.67161">
        <ele>497.6196289</ele>
        <time>2021-07-05T13:34:25Z</time>
      </trkpt>
      <trkpt lat="44.90716" lon="5.67165">
        <ele>497.6196289</ele>
        <time>2021-07-05T13:34:37Z</time>
      </trkpt>
      <trkpt lat="44.90715" lon="5.67166">
        <ele>497.6196289</ele>
        <time>2021-07-05T13:35:04Z</time>
      </trkpt>
      <trkpt lat="44.90713" lon="5.67169">
        <ele>497.6196289</ele>
        <time>2021-07-05T13:35:09Z</time>
      </trkpt>
      <trkpt lat="44.90705" lon="5.67175">
        <ele>497.6196289</ele>
        <time>2021-07-05T13:35:25Z</time>
      </trkpt>
      <trkpt lat="44.90702" lon="5.67171">
        <ele>497.6196289</ele>
        <time>2021-07-05T13:35:53Z</time>
      </trkpt>
      <trkpt lat="44.90708" lon="5.67169">
        <ele>498.5809326</ele>
        <time>2021-07-05T13:36:12Z</time>
      </trkpt>
      <trkpt lat="44.9071" lon="5.67169">
        <ele>498.1003418</ele>
        <time>2021-07-05T13:36:55Z</time>
      </trkpt>
      <trkpt lat="44.90713" lon="5.67168">
        <ele>498.5809326</ele>
        <time>2021-07-05T13:40:51Z</time>
      </trkpt>
      <trkpt lat="44.90732" lon="5.67169">
        <ele>498.1003418</ele>
        <time>2021-07-05T13:41:13Z</time>
      </trkpt>
      <trkpt lat="44.90732" lon="5.67167">
        <ele>498.1003418</ele>
        <time>2021-07-05T13:41:41Z</time>
      </trkpt>
      <trkpt lat="44.90738" lon="5.67135">
        <ele>498.5809326</ele>
        <time>2021-07-05T13:42:02Z</time>
      </trkpt>
      <trkpt lat="44.90736" lon="5.67128">
        <ele>498.5809326</ele>
        <time>2021-07-05T13:42:07Z</time>
      </trkpt>
      <trkpt lat="44.90745" lon="5.67105">
        <ele>499.0615234</ele>
        <time>2021-07-05T13:42:24Z</time>
      </trkpt>
      <trkpt lat="44.90744" lon="5.67099">
        <ele>500.9841309</ele>
        <time>2021-07-05T13:42:44Z</time>
      </trkpt>
      <trkpt lat="44.90745" lon="5.67098">
        <ele>501.4648438</ele>
        <time>2021-07-05T13:43:03Z</time>
      </trkpt>
      <trkpt lat="44.90744" lon="5.67094">
        <ele>501.4648438</ele>
        <time>2021-07-05T13:43:20Z</time>
      </trkpt>
      <trkpt lat="44.90743" lon="5.67095">
        <ele>501.4648438</ele>
        <time>2021-07-05T13:44:02Z</time>
      </trkpt>
      <trkpt lat="44.90743" lon="5.67096">
        <ele>502.4261475</ele>
        <time>2021-07-05T13:46:47Z</time>
      </trkpt>
      <trkpt lat="44.90742" lon="5.67097">
        <ele>501.9455566</ele>
        <time>2021-07-05T13:47:05Z</time>
      </trkpt>
      <trkpt lat="44.90742" lon="5.67097">
        <ele>501.9455566</ele>
        <time>2021-07-05T13:47:42Z</time>
      </trkpt>
      <trkpt lat="44.90741" lon="5.67096">
        <ele>502.4261475</ele>
        <time>2021-07-05T13:48:09Z</time>
      </trkpt>
      <trkpt lat="44.90743" lon="5.67095">
        <ele>501.4648438</ele>
        <time>2021-07-05T13:48:30Z</time>
      </trkpt>
      <trkpt lat="44.90742" lon="5.67094">
        <ele>504.8294678</ele>
        <time>2021-07-05T14:03:35Z</time>
      </trkpt>
      <trkpt lat="44.90742" lon="5.67094">
        <ele>506.7520752</ele>
        <time>2021-07-05T14:15:41Z</time>
      </trkpt>
      <trkpt lat="44.90746" lon="5.67091">
        <ele>506.7520752</ele>
        <time>2021-07-05T14:15:53Z</time>
      </trkpt>
      <trkpt lat="44.90744" lon="5.67095">
        <ele>506.7520752</ele>
        <time>2021-07-05T14:16:11Z</time>
      </trkpt>
      <trkpt lat="44.90745" lon="5.671">
        <ele>505.3101807</ele>
        <time>2021-07-05T14:16:30Z</time>
      </trkpt>
      <trkpt lat="44.90745" lon="5.67107">
        <ele>504.8294678</ele>
        <time>2021-07-05T14:16:34Z</time>
      </trkpt>
      <trkpt lat="44.90734" lon="5.67126">
        <ele>504.348877</ele>
        <time>2021-07-05T14:16:51Z</time>
      </trkpt>
      <trkpt lat="44.90735" lon="5.67128">
        <ele>504.348877</ele>
        <time>2021-07-05T14:16:53Z</time>
      </trkpt>
      <trkpt lat="44.90735" lon="5.6714">
        <ele>503.8681641</ele>
        <time>2021-07-05T14:17:09Z</time>
      </trkpt>
      <trkpt lat="44.90728" lon="5.67151">
        <ele>504.348877</ele>
        <time>2021-07-05T14:17:24Z</time>
      </trkpt>
      <trkpt lat="44.9073" lon="5.67164">
        <ele>502.9067383</ele>
        <time>2021-07-05T14:17:41Z</time>
      </trkpt>
      <trkpt lat="44.90731" lon="5.67169">
        <ele>502.4261475</ele>
        <time>2021-07-05T14:17:55Z</time>
      </trkpt>
      <trkpt lat="44.9073" lon="5.67167">
        <ele>502.9067383</ele>
        <time>2021-07-05T14:18:09Z</time>
      </trkpt>
      <trkpt lat="44.9073" lon="5.6717">
        <ele>503.3874512</ele>
        <time>2021-07-05T14:18:31Z</time>
      </trkpt>
      <trkpt lat="44.9073" lon="5.6717">
        <ele>503.8681641</ele>
        <time>2021-07-05T14:18:40Z</time>
      </trkpt>
    </trkseg>
  </trk>
</gpx>